Observation data for Welch on 03/25/2019      Previous  Date  Next       Current Mesonet Observations  Soil Data  Daily Summary Page  Observations in Plain Language
KWE2 250500Z 10002KT 12/M00 A3012 RMK A01 T01171001  RH  044%=      5-min Rain = 0
KWE2 250501Z 10001KT 11/M00 A3012 RMK A01 T01141001  RH  045%=      5-min Rain = 0
KWE2 250502Z 11002KT 11/M00 A3012 RMK A01 T01111002  RH  046%=      5-min Rain = 0
KWE2 250503Z 12002KT 11/M00 A3012 RMK A01 T01081004  RH  046%=      5-min Rain = 0
KWE2 250504Z 13002KT 11/M01 A3012 RMK A01 T01051005  RH  047%=      5-min Rain = 0
KWE2 250505Z 13002KT 10/M00 A3012 RMK A01 T01041004  RH  047%=      5-min Rain = 0
KWE2 250506Z 12002KT 10/M01 A3012 RMK A01 T01031006  RH  047%=      5-min Rain = 0
KWE2 250507Z 13003KT 10/M01 A3012 RMK A01 T01041006  RH  047%=      5-min Rain = 0
KWE2 250508Z 12003KT 11/M00 A3012 RMK A01 T01051004  RH  047%=      5-min Rain = 0
KWE2 250509Z 13002KT 11/M00 A3012 RMK A01 T01091002  RH  046%=      5-min Rain = 0
KWE2 250510Z 13002KT 11/M00 A3012 RMK A01 T01121003  RH  045%=      5-min Rain = 0
KWE2 250511Z 12003KT 11/M01 A3012 RMK A01 T01131007  RH  043%=      5-min Rain = 0
KWE2 250512Z 12003KT 11/M01 A3012 RMK A01 T01131009  RH  043%=      5-min Rain = 0
KWE2 250513Z 12003KT 11/M01 A3012 RMK A01 T01111014  RH  042%=      5-min Rain = 0
KWE2 250514Z 12003KT 11/M02 A3012 RMK A01 T01071017  RH  042%=      5-min Rain = 0
KWE2 250515Z 11003KT 10/M02 A3013 RMK A01 T01041017  RH  043%=      5-min Rain = 0
KWE2 250516Z 11003KT 10/M02 A3013 RMK A01 T01001018  RH  043%=      5-min Rain = 0
KWE2 250517Z 11003KT 10/M02 A3013 RMK A01 T00981018  RH  044%=      5-min Rain = 0
KWE2 250518Z 12003KT 10/M02 A3013 RMK A01 T00961017  RH  045%=      5-min Rain = 0
KWE2 250519Z 12003KT 10/M02 A3013 RMK A01 T00961016  RH  046%=      5-min Rain = 0
KWE2 250520Z 12003KT 10/M02 A3013 RMK A01 T00961016  RH  046%=      5-min Rain = 0
KWE2 250521Z 12003KT 10/M02 A3013 RMK A01 T00961016  RH  045%=      5-min Rain = 0
KWE2 250522Z 13003KT 10/M02 A3013 RMK A01 T00961015  RH  046%=      5-min Rain = 0
KWE2 250523Z 13003KT 10/M02 A3013 RMK A01 T00961018  RH  045%=      5-min Rain = 0
KWE2 250524Z 13003KT 09/M02 A3013 RMK A01 T00941017  RH  046%=      5-min Rain = 0
KWE2 250525Z 13003KT 09/M02 A3013 RMK A01 T00941016  RH  046%=      5-min Rain = 0
KWE2 250526Z 12003KT 09/M01 A3013 RMK A01 T00941014  RH  047%=      5-min Rain = 0
KWE2 250527Z 13003KT 09/M01 A3013 RMK A01 T00941014  RH  047%=      5-min Rain = 0
KWE2 250528Z 13003KT 09/M02 A3013 RMK A01 T00941015  RH  047%=      5-min Rain = 0
KWE2 250529Z 13003KT 09/M02 A3013 RMK A01 T00931018  RH  046%=      5-min Rain = 0
KWE2 250530Z 12003KT 09/M02 A3013 RMK A01 T00921019  RH  046%=      5-min Rain = 0
KWE2 250531Z 12003KT 09/M02 A3013 RMK A01 T00921018  RH  046%=      5-min Rain = 0
KWE2 250532Z 09002KT 09/M02 A3013 RMK A01 T00911019  RH  046%=      5-min Rain = 0
KWE2 250533Z 05002KT 09/M01 A3013 RMK A01 T00911014  RH  048%=      5-min Rain = 0
KWE2 250534Z 07001KT 09/M01 A3013 RMK A01 T00911012  RH  049%=      5-min Rain = 0
KWE2 250535Z 08000KT 09/M01 A3013 RMK A01 T00901013  RH  048%=      5-min Rain = 0
KWE2 250536Z 09001KT 09/M02 A3013 RMK A01 T00891015  RH  048%=      5-min Rain = 0
KWE2 250537Z 10001KT 09/M01 A3013 RMK A01 T00901012  RH  049%=      5-min Rain = 0
KWE2 250538Z 13001KT 09/M01 A3013 RMK A01 T00931009  RH  049%=      5-min Rain = 0
KWE2 250539Z 12002KT 10/M01 A3013 RMK A01 T00951009  RH  048%=      5-min Rain = 0
KWE2 250540Z 12001KT 10/M01 A3013 RMK A01 T00981008  RH  048%=      5-min Rain = 0
KWE2 250541Z 13001KT 10/M01 A3013 RMK A01 T01001007  RH  047%=      5-min Rain = 0
KWE2 250542Z 12001KT 10/M01 A3013 RMK A01 T01021005  RH  047%=      5-min Rain = 0
KWE2 250543Z 10001KT 11/00 A3013 RMK A01 T010500-0  RH  048%=      5-min Rain = 0
KWE2 250544Z 04001KT 11/00 A3013 RMK A01 T01090002  RH  047%=      5-min Rain = 0
KWE2 250545Z 01003KT 11/M00 A3013 RMK A01 T01081001  RH  047%=      5-min Rain = 0
KWE2 250546Z 35004KT 10/M01 A3013 RMK A01 T00971005  RH  049%=      5-min Rain = 0
KWE2 250547Z 34008KT 09/M01 A3013 RMK A01 T00891005  RH  052%=      5-min Rain = 0
KWE2 250548Z 35009KT 09/M00 A3014 RMK A01 T00851002  RH  054%=      5-min Rain = 0
KWE2 250549Z 35010KT 08/00 A3014 RMK A01 T00840001  RH  056%=      5-min Rain = 0
KWE2 250550Z 35009KT 08/00 A3014 RMK A01 T00840001  RH  056%=      5-min Rain = 0
KWE2 250551Z 35009KT 09/00 A3014 RMK A01 T00870002  RH  055%=      5-min Rain = 0
KWE2 250552Z 35008KT 09/00 A3014 RMK A01 T00910004  RH  054%=      5-min Rain = 0
KWE2 250553Z 00006KT 09/00 A3014 RMK A01 T00940004  RH  053%=      5-min Rain = 0
KWE2 250554Z 03004KT 10/01 A3014 RMK A01 T00970005  RH  053%=      5-min Rain = 0
KWE2 250555Z 06003KT 10/01 A3014 RMK A01 T00990005  RH  052%=      5-min Rain = 0
KWE2 250556Z 07004KT 11/01 A3014 RMK A01 T01070008  RH  051%=      5-min Rain = 0
KWE2 250557Z 08003KT 11/01 A3014 RMK A01 T01090008  RH  049%=      5-min Rain = 0
KWE2 250558Z 09004KT 11/01 A3014 RMK A01 T01090007  RH  049%=      5-min Rain = 0
KWE2 250559Z 10003KT 11/01 A3014 RMK A01 T01120006  RH  048%=      5-min Rain = 0
KWE2 250600Z 08002KT 11/00 A3014 RMK A01 T01110003  RH  047%=      5-min Rain = 0
KWE2 250601Z 33003KT 11/00 A3014 RMK A01 T01080002  RH  048%=      5-min Rain = 0
KWE2 250602Z 33007KT 10/00 A3014 RMK A01 T01020001  RH  049%=      5-min Rain = 0
KWE2 250603Z 34008KT 10/00 A3015 RMK A01 T00970001  RH  051%=      5-min Rain = 0
KWE2 250604Z 34006KT 09/00 A3015 RMK A01 T00940002  RH  053%=      5-min Rain = 0
KWE2 250605Z 35005KT 09/00 A3015 RMK A01 T00930003  RH  053%=      5-min Rain = 0
KWE2 250606Z 01004KT 09/01 A3015 RMK A01 T00930005  RH  054%=      5-min Rain = 0
KWE2 250607Z 04005KT 10/01 A3014 RMK A01 T00950006  RH  054%=      5-min Rain = 0
KWE2 250608Z 06005KT 10/01 A3014 RMK A01 T00990007  RH  053%=      5-min Rain = 0
KWE2 250609Z 08005KT 11/01 A3014 RMK A01 T01060011  RH  052%=      5-min Rain = 0
KWE2 250610Z 09006KT 12/01 A3014 RMK A01 T01170013  RH  049%=      5-min Rain = 0
KWE2 250611Z 09007KT 12/01 A3014 RMK A01 T01160012  RH  049%=      5-min Rain = 0
KWE2 250612Z 09008KT 11/01 A3014 RMK A01 T01140013  RH  050%=      5-min Rain = 0
KWE2 250613Z 09007KT 12/02 A3014 RMK A01 T01200016  RH  049%=      5-min Rain = 0
KWE2 250614Z 09007KT 13/02 A3014 RMK A01 T01270015  RH  047%=      5-min Rain = 0
KWE2 250615Z 10006KT 13/01 A3014 RMK A01 T01270013  RH  046%=      5-min Rain = 0
KWE2 250616Z 10006KT 12/01 A3014 RMK A01 T01220011  RH  046%=      5-min Rain = 0
KWE2 250617Z 10006KT 12/01 A3014 RMK A01 T01170008  RH  047%=      5-min Rain = 0
KWE2 250618Z 09005KT 11/01 A3014 RMK A01 T01120005  RH  048%=      5-min Rain = 0
KWE2 250619Z 07004KT 11/01 A3014 RMK A01 T01120008  RH  049%=      5-min Rain = 0
KWE2 250620Z 07003KT 12/01 A3015 RMK A01 T01170012  RH  049%=      5-min Rain = 0
KWE2 250621Z 07002KT 12/01 A3015 RMK A01 T01210013  RH  048%=      5-min Rain = 0
KWE2 250622Z 04002KT 12/01 A3015 RMK A01 T01220014  RH  047%=      5-min Rain = 0
KWE2 250623Z 34002KT 12/01 A3015 RMK A01 T01190010  RH  047%=      5-min Rain = 0
KWE2 250624Z 33003KT 11/01 A3015 RMK A01 T01130007  RH  048%=      5-min Rain = 0
KWE2 250625Z 33002KT 11/01 A3015 RMK A01 T01090006  RH  049%=      5-min Rain = 0
KWE2 250626Z 33002KT 10/01 A3015 RMK A01 T01030005  RH  051%=      5-min Rain = 0
KWE2 250627Z 33003KT 10/01 A3015 RMK A01 T01000006  RH  052%=      5-min Rain = 0
KWE2 250628Z 32002KT 10/01 A3015 RMK A01 T00980006  RH  053%=      5-min Rain = 0
KWE2 250629Z 30001KT 10/01 A3014 RMK A01 T00960007  RH  054%=      5-min Rain = 0
KWE2 250630Z 31000KT 10/01 A3014 RMK A01 T00950007  RH  054%=      5-min Rain = 0
KWE2 250631Z 00000KT 10/01 A3014 RMK A01 T00950009  RH  055%=      5-min Rain = 0
KWE2 250632Z 02000KT 10/01 A3014 RMK A01 T00960009  RH  055%=      5-min Rain = 0
KWE2 250633Z 01001KT 10/01 A3014 RMK A01 T00970010  RH  055%=      5-min Rain = 0
KWE2 250634Z 02002KT 10/01 A3014 RMK A01 T00970010  RH  055%=      5-min Rain = 0
KWE2 250635Z 03001KT 10/01 A3014 RMK A01 T00970010  RH  055%=      5-min Rain = 0
KWE2 250636Z 04001KT 10/01 A3014 RMK A01 T00960010  RH  055%=      5-min Rain = 0
KWE2 250637Z 08001KT 10/01 A3014 RMK A01 T00960010  RH  055%=      5-min Rain = 0
KWE2 250638Z 10001KT 10/01 A3014 RMK A01 T00960011  RH  055%=      5-min Rain = 0
KWE2 250639Z 12001KT 10/01 A3014 RMK A01 T00960011  RH  055%=      5-min Rain = 0
KWE2 250640Z 13002KT 10/01 A3014 RMK A01 T00960010  RH  055%=      5-min Rain = 0
KWE2 250641Z 14002KT 10/01 A3014 RMK A01 T00950011  RH  056%=      5-min Rain = 0
KWE2 250642Z 14002KT 10/01 A3014 RMK A01 T00950010  RH  056%=      5-min Rain = 0
KWE2 250643Z 14002KT 10/01 A3014 RMK A01 T00950009  RH  055%=      5-min Rain = 0
KWE2 250644Z 14001KT 09/01 A3014 RMK A01 T00940009  RH  055%=      5-min Rain = 0
KWE2 250645Z 14001KT 09/01 A3014 RMK A01 T00940007  RH  054%=      5-min Rain = 0
KWE2 250646Z 13001KT 09/00 A3014 RMK A01 T00940003  RH  053%=      5-min Rain = 0
KWE2 250647Z 13000KT 09/00 A3015 RMK A01 T00920003  RH  054%=      5-min Rain = 0
KWE2 250648Z 00000KT 09/00 A3015 RMK A01 T00910002  RH  054%=      5-min Rain = 0
KWE2 250649Z 00000KT 09/00 A3015 RMK A01 T00860003  RH  056%=      5-min Rain = 0
KWE2 250650Z 00000KT 08/01 A3015 RMK A01 T00820005  RH  058%=      5-min Rain = 0
KWE2 250651Z 00000KT 08/00 A3015 RMK A01 T00800004  RH  059%=      5-min Rain = 0
KWE2 250652Z 00000KT 08/01 A3015 RMK A01 T00780005  RH  060%=      5-min Rain = 0
KWE2 250653Z 05000KT 08/00 A3015 RMK A01 T00780004  RH  060%=      5-min Rain = 0
KWE2 250654Z 04002KT 08/01 A3015 RMK A01 T00790005  RH  060%=      5-min Rain = 0
KWE2 250655Z 05002KT 08/01 A3015 RMK A01 T00790008  RH  060%=      5-min Rain = 0
KWE2 250656Z 05003KT 08/01 A3015 RMK A01 T00820010  RH  061%=      5-min Rain = 0
KWE2 250657Z 05003KT 09/01 A3015 RMK A01 T00860012  RH  060%=      5-min Rain = 0
KWE2 250658Z 05003KT 09/01 A3015 RMK A01 T00890011  RH  058%=      5-min Rain = 0
KWE2 250659Z 06003KT 09/01 A3015 RMK A01 T00890013  RH  059%=      5-min Rain = 0
KWE2 250700Z 06004KT 09/01 A3015 RMK A01 T00890013  RH  059%=      5-min Rain = 0
KWE2 250701Z 07003KT 09/01 A3015 RMK A01 T00890013  RH  059%=      5-min Rain = 0
KWE2 250702Z 07003KT 09/01 A3015 RMK A01 T00900014  RH  059%=      5-min Rain = 0
KWE2 250703Z 07003KT 09/01 A3015 RMK A01 T00920014  RH  058%=      5-min Rain = 0
KWE2 250704Z 07002KT 09/01 A3015 RMK A01 T00920014  RH  058%=      5-min Rain = 0
KWE2 250705Z 06002KT 09/01 A3015 RMK A01 T00870009  RH  058%=      5-min Rain = 0
KWE2 250706Z 05001KT 08/01 A3015 RMK A01 T00830008  RH  059%=      5-min Rain = 0
KWE2 250707Z 04001KT 08/01 A3015 RMK A01 T00800007  RH  060%=      5-min Rain = 0
KWE2 250708Z 03001KT 08/01 A3015 RMK A01 T00780006  RH  061%=      5-min Rain = 0
KWE2 250709Z 03001KT 08/01 A3015 RMK A01 T00760006  RH  061%=      5-min Rain = 0
KWE2 250710Z 01001KT 08/01 A3015 RMK A01 T00760006  RH  061%=      5-min Rain = 0
KWE2 250711Z 01002KT 08/01 A3015 RMK A01 T00760005  RH  061%=      5-min Rain = 0
KWE2 250712Z 02002KT 08/00 A3015 RMK A01 T00760004  RH  060%=      5-min Rain = 0
KWE2 250713Z 03002KT 08/01 A3015 RMK A01 T00760005  RH  061%=      5-min Rain = 0
KWE2 250714Z 04002KT 08/01 A3015 RMK A01 T00770007  RH  061%=      5-min Rain = 0
KWE2 250715Z 05002KT 08/01 A3014 RMK A01 T00800009  RH  061%=      5-min Rain = 0
KWE2 250716Z 05002KT 08/01 A3014 RMK A01 T00830010  RH  060%=      5-min Rain = 0
KWE2 250717Z 05002KT 09/01 A3014 RMK A01 T00860010  RH  059%=      5-min Rain = 0
KWE2 250718Z 05001KT 09/01 A3014 RMK A01 T00860008  RH  058%=      5-min Rain = 0
KWE2 250719Z 05001KT 09/01 A3014 RMK A01 T00860010  RH  058%=      5-min Rain = 0
KWE2 250720Z 03001KT 09/01 A3014 RMK A01 T00890010  RH  058%=      5-min Rain = 0
KWE2 250721Z 00001KT 09/01 A3015 RMK A01 T00900009  RH  057%=      5-min Rain = 0
KWE2 250722Z 35001KT 09/01 A3015 RMK A01 T00890007  RH  056%=      5-min Rain = 0
KWE2 250723Z 00002KT 08/00 A3015 RMK A01 T00840001  RH  056%=      5-min Rain = 0
KWE2 250724Z 01003KT 08/00 A3015 RMK A01 T007900-0  RH  057%=      5-min Rain = 0
KWE2 250725Z 00003KT 08/00 A3015 RMK A01 T00760001  RH  059%=      5-min Rain = 0
KWE2 250726Z 00003KT 08/00 A3015 RMK A01 T00750002  RH  060%=      5-min Rain = 0
KWE2 250727Z 35003KT 07/00 A3015 RMK A01 T00720001  RH  060%=      5-min Rain = 0
KWE2 250728Z 34003KT 07/00 A3015 RMK A01 T00700001  RH  062%=      5-min Rain = 0
KWE2 250729Z 34004KT 07/00 A3015 RMK A01 T00700002  RH  062%=      5-min Rain = 0
KWE2 250730Z 35004KT 07/00 A3015 RMK A01 T00710002  RH  062%=      5-min Rain = 0
KWE2 250731Z 35004KT 07/00 A3015 RMK A01 T00720004  RH  062%=      5-min Rain = 0
KWE2 250732Z 36004KT 07/00 A3015 RMK A01 T00740004  RH  061%=      5-min Rain = 0
KWE2 250733Z 36005KT 07/00 A3015 RMK A01 T00740003  RH  061%=      5-min Rain = 0
KWE2 250734Z 35005KT 07/00 A3015 RMK A01 T00730003  RH  061%=      5-min Rain = 0
KWE2 250735Z 00005KT 07/00 A3015 RMK A01 T00700002  RH  062%=      5-min Rain = 0
KWE2 250736Z 00005KT 07/00 A3015 RMK A01 T00670001  RH  063%=      5-min Rain = 0
KWE2 250737Z 01004KT 07/00 A3015 RMK A01 T00660002  RH  063%=      5-min Rain = 0
KWE2 250738Z 02004KT 07/01 A3015 RMK A01 T00680005  RH  064%=      5-min Rain = 0
KWE2 250739Z 03004KT 07/01 A3015 RMK A01 T00700006  RH  064%=      5-min Rain = 0
KWE2 250740Z 03004KT 07/01 A3015 RMK A01 T00730008  RH  064%=      5-min Rain = 0
KWE2 250741Z 03004KT 08/01 A3015 RMK A01 T00760010  RH  063%=      5-min Rain = 0
KWE2 250742Z 04004KT 08/01 A3015 RMK A01 T00780010  RH  062%=      5-min Rain = 0
KWE2 250743Z 04004KT 08/01 A3015 RMK A01 T00780009  RH  061%=      5-min Rain = 0
KWE2 250744Z 04003KT 08/01 A3015 RMK A01 T00770007  RH  061%=      5-min Rain = 0
KWE2 250745Z 04003KT 08/01 A3015 RMK A01 T00750006  RH  062%=      5-min Rain = 0
KWE2 250746Z 04003KT 08/01 A3015 RMK A01 T00750006  RH  062%=      5-min Rain = 0
KWE2 250747Z 05003KT 07/01 A3015 RMK A01 T00740007  RH  062%=      5-min Rain = 0
KWE2 250748Z 05003KT 07/01 A3015 RMK A01 T00740005  RH  062%=      5-min Rain = 0
KWE2 250749Z 05003KT 07/00 A3015 RMK A01 T00730004  RH  062%=      5-min Rain = 0
KWE2 250750Z 05002KT 07/00 A3015 RMK A01 T00710004  RH  062%=      5-min Rain = 0
KWE2 250751Z 04001KT 07/00 A3015 RMK A01 T00690003  RH  062%=      5-min Rain = 0
KWE2 250752Z 03002KT 07/00 A3015 RMK A01 T00650000  RH  063%=      5-min Rain = 0
KWE2 250753Z 03002KT 06/00 A3015 RMK A01 T00620002  RH  065%=      5-min Rain = 0
KWE2 250754Z 03003KT 06/01 A3015 RMK A01 T00630007  RH  067%=      5-min Rain = 0
KWE2 250755Z 04003KT 07/01 A3015 RMK A01 T00680011  RH  067%=      5-min Rain = 0
KWE2 250756Z 04004KT 07/01 A3015 RMK A01 T00710012  RH  066%=      5-min Rain = 0
KWE2 250757Z 04004KT 07/01 A3015 RMK A01 T00740012  RH  065%=      5-min Rain = 0
KWE2 250758Z 04004KT 08/01 A3015 RMK A01 T00750012  RH  064%=      5-min Rain = 0
KWE2 250759Z 04004KT 08/01 A3015 RMK A01 T00760011  RH  063%=      5-min Rain = 0
KWE2 250800Z 04003KT 08/01 A3015 RMK A01 T00750009  RH  063%=      5-min Rain = 0
KWE2 250801Z 04003KT 07/01 A3015 RMK A01 T00710005  RH  063%=      5-min Rain = 0
KWE2 250802Z 04003KT 07/01 A3015 RMK A01 T00690006  RH  064%=      5-min Rain = 0
KWE2 250803Z 04003KT 07/01 A3015 RMK A01 T00680009  RH  066%=      5-min Rain = 0
KWE2 250804Z 03003KT 07/01 A3015 RMK A01 T00690009  RH  066%=      5-min Rain = 0
KWE2 250805Z 03003KT 07/01 A3015 RMK A01 T00680008  RH  066%=      5-min Rain = 0
KWE2 250806Z 03003KT 07/01 A3015 RMK A01 T00670008  RH  066%=      5-min Rain = 0
KWE2 250807Z 04003KT 07/01 A3015 RMK A01 T00660010  RH  067%=      5-min Rain = 0
KWE2 250808Z 05002KT 07/01 A3015 RMK A01 T00680013  RH  068%=      5-min Rain = 0
KWE2 250809Z 05003KT 07/01 A3015 RMK A01 T00700012  RH  067%=      5-min Rain = 0
KWE2 250810Z 05003KT 07/01 A3015 RMK A01 T00690008  RH  065%=      5-min Rain = 0
KWE2 250811Z 06004KT 07/01 A3015 RMK A01 T00680009  RH  066%=      5-min Rain = 0
KWE2 250812Z 05005KT 07/01 A3015 RMK A01 T00680014  RH  068%=      5-min Rain = 0
KWE2 250813Z 05005KT 07/02 A3015 RMK A01 T00710016  RH  068%=      5-min Rain = 0
KWE2 250814Z 05005KT 07/01 A3015 RMK A01 T00730014  RH  066%=      5-min Rain = 0
KWE2 250815Z 05005KT 07/01 A3015 RMK A01 T00710012  RH  066%=      5-min Rain = 0
KWE2 250816Z 05006KT 07/01 A3015 RMK A01 T00700014  RH  067%=      5-min Rain = 0
KWE2 250817Z 04005KT 07/02 A3015 RMK A01 T00720016  RH  068%=      5-min Rain = 0
KWE2 250818Z 04005KT 07/02 A3015 RMK A01 T00720018  RH  068%=      5-min Rain = 0
KWE2 250819Z 03004KT 07/02 A3015 RMK A01 T00720019  RH  069%=      5-min Rain = 0
KWE2 250820Z 02004KT 07/02 A3015 RMK A01 T00710019  RH  069%=      5-min Rain = 0
KWE2 250821Z 02004KT 07/02 A3015 RMK A01 T00710017  RH  068%=      5-min Rain = 0
KWE2 250822Z 02004KT 07/01 A3016 RMK A01 T00690013  RH  067%=      5-min Rain = 0
KWE2 250823Z 02006KT 07/01 A3016 RMK A01 T00670012  RH  068%=      5-min Rain = 0
KWE2 250824Z 02007KT 07/02 A3016 RMK A01 T00650016  RH  071%=      5-min Rain = 0
KWE2 250825Z 02007KT 07/02 A3016 RMK A01 T00650018  RH  072%=      5-min Rain = 0
KWE2 250826Z 01005KT 07/02 A3016 RMK A01 T00670020  RH  072%=      5-min Rain = 0
KWE2 250827Z 00005KT 07/02 A3015 RMK A01 T00680018  RH  070%=      5-min Rain = 0
KWE2 250828Z 00005KT 07/02 A3015 RMK A01 T00690017  RH  069%=      5-min Rain = 0
KWE2 250829Z 01006KT 07/02 A3015 RMK A01 T00690017  RH  069%=      5-min Rain = 0
KWE2 250830Z 01007KT 07/02 A3015 RMK A01 T00690017  RH  069%=      5-min Rain = 0
KWE2 250831Z 01007KT 07/02 A3015 RMK A01 T00690017  RH  069%=      5-min Rain = 0
KWE2 250832Z 02007KT 07/02 A3015 RMK A01 T00680017  RH  070%=      5-min Rain = 0
KWE2 250833Z 03007KT 07/02 A3016 RMK A01 T00660017  RH  071%=      5-min Rain = 0
KWE2 250834Z 03008KT 06/02 A3016 RMK A01 T00640018  RH  072%=      5-min Rain = 0
KWE2 250835Z 03009KT 06/02 A3016 RMK A01 T00640021  RH  074%=      5-min Rain = 0
KWE2 250836Z 02007KT 07/03 A3016 RMK A01 T00680026  RH  075%=      5-min Rain = 0
KWE2 250837Z 02007KT 07/03 A3016 RMK A01 T00710026  RH  073%=      5-min Rain = 0
KWE2 250838Z 02007KT 07/03 A3016 RMK A01 T00720026  RH  072%=      5-min Rain = 0
KWE2 250839Z 02007KT 07/03 A3016 RMK A01 T00740026  RH  072%=      5-min Rain = 0
KWE2 250840Z 02006KT 07/03 A3016 RMK A01 T00740026  RH  071%=      5-min Rain = 0
KWE2 250841Z 01007KT 07/03 A3016 RMK A01 T00730025  RH  071%=      5-min Rain = 0
KWE2 250842Z 01008KT 07/02 A3016 RMK A01 T00720023  RH  071%=      5-min Rain = 0
KWE2 250843Z 02009KT 07/02 A3016 RMK A01 T00700022  RH  071%=      5-min Rain = 0
KWE2 250844Z 02009KT 07/02 A3016 RMK A01 T00690022  RH  072%=      5-min Rain = 0
KWE2 250845Z 02009KT 07/02 A3016 RMK A01 T00690024  RH  073%=      5-min Rain = 0
KWE2 250846Z 01010KT 07/02 A3016 RMK A01 T00700024  RH  073%=      5-min Rain = 0
KWE2 250847Z 01010KT 07/02 A3016 RMK A01 T00700024  RH  073%=      5-min Rain = 0
KWE2 250848Z 02009KT 07/03 A3016 RMK A01 T00700025  RH  073%=      5-min Rain = 0
KWE2 250849Z 02008KT 07/03 A3016 RMK A01 T00700026  RH  073%=      5-min Rain = 0
KWE2 250850Z 02008KT 07/03 A3016 RMK A01 T00710027  RH  073%=      5-min Rain = 0
KWE2 250851Z 02008KT 07/03 A3016 RMK A01 T00710027  RH  074%=      5-min Rain = 0
KWE2 250852Z 02007KT 07/03 A3016 RMK A01 T00720028  RH  073%=      5-min Rain = 0
KWE2 250853Z 02007KT 07/03 A3016 RMK A01 T00720027  RH  073%=      5-min Rain = 0
KWE2 250854Z 02007KT 07/03 A3016 RMK A01 T00720028  RH  073%=      5-min Rain = 0
KWE2 250855Z 02007KT 07/03 A3016 RMK A01 T00710028  RH  074%=      5-min Rain = 0
KWE2 250856Z 02006KT 07/03 A3016 RMK A01 T00710028  RH  074%=      5-min Rain = 0
KWE2 250857Z 02006KT 07/03 A3016 RMK A01 T00700027  RH  074%=      5-min Rain = 0
KWE2 250858Z 02006KT 07/03 A3016 RMK A01 T00690027  RH  074%=      5-min Rain = 0
KWE2 250859Z 03005KT 07/03 A3016 RMK A01 T00690028  RH  075%=      5-min Rain = 0
KWE2 250900Z 03005KT 07/03 A3015 RMK A01 T00690028  RH  075%=      5-min Rain = 0
KWE2 250901Z 03004KT 07/03 A3015 RMK A01 T00690028  RH  075%=      5-min Rain = 0
KWE2 250902Z 02005KT 07/03 A3015 RMK A01 T00690029  RH  075%=      5-min Rain = 0
KWE2 250903Z 03005KT 07/03 A3015 RMK A01 T00690028  RH  075%=      5-min Rain = 0
KWE2 250904Z 03006KT 07/03 A3015 RMK A01 T00690028  RH  075%=      5-min Rain = 0
KWE2 250905Z 03006KT 07/03 A3015 RMK A01 T00680029  RH  076%=      5-min Rain = 0
KWE2 250906Z 04006KT 07/03 A3015 RMK A01 T00680032  RH  078%=      5-min Rain = 0
KWE2 250907Z 04005KT 07/03 A3015 RMK A01 T00690034  RH  078%=      5-min Rain = 0
KWE2 250908Z 04005KT 07/04 A3015 RMK A01 T00720036  RH  078%=      5-min Rain = 0
KWE2 250909Z 04005KT 07/04 A3015 RMK A01 T00730036  RH  077%=      5-min Rain = 0
KWE2 250910Z 03005KT 07/04 A3015 RMK A01 T00740035  RH  076%=      5-min Rain = 0
KWE2 250911Z 02005KT 08/03 A3015 RMK A01 T00750034  RH  076%=      5-min Rain = 0
KWE2 250912Z 02004KT 07/03 A3015 RMK A01 T00740033  RH  075%=      5-min Rain = 0
KWE2 250913Z 02005KT 07/03 A3015 RMK A01 T00740033  RH  075%=      5-min Rain = 0
KWE2 250914Z 03004KT 07/03 A3015 RMK A01 T00740032  RH  075%=      5-min Rain = 0
KWE2 250915Z 03005KT 07/03 A3015 RMK A01 T00720031  RH  075%=      5-min Rain = 0
KWE2 250916Z 02005KT 07/03 A3015 RMK A01 T00710030  RH  075%=      5-min Rain = 0
KWE2 250917Z 03005KT 07/03 A3015 RMK A01 T00710030  RH  075%=      5-min Rain = 0
KWE2 250918Z 03005KT 07/03 A3015 RMK A01 T00700030  RH  076%=      5-min Rain = 0
KWE2 250919Z 03005KT 07/03 A3015 RMK A01 T00700030  RH  076%=      5-min Rain = 0
KWE2 250920Z 03005KT 07/03 A3015 RMK A01 T00690030  RH  076%=      5-min Rain = 0
KWE2 250921Z 02004KT 07/03 A3015 RMK A01 T00680028  RH  076%=      5-min Rain = 0
KWE2 250922Z 02004KT 07/03 A3015 RMK A01 T00670026  RH  075%=      5-min Rain = 0
KWE2 250923Z 02004KT 07/03 A3015 RMK A01 T00650025  RH  075%=      5-min Rain = 0
KWE2 250924Z 02004KT 06/03 A3015 RMK A01 T00640025  RH  076%=      5-min Rain = 0
KWE2 250925Z 03004KT 06/03 A3015 RMK A01 T00640025  RH  076%=      5-min Rain = 0
KWE2 250926Z 03003KT 06/03 A3015 RMK A01 T00640026  RH  077%=      5-min Rain = 0
KWE2 250927Z 02003KT 06/03 A3016 RMK A01 T00630026  RH  077%=      5-min Rain = 0
KWE2 250928Z 02003KT 06/03 A3016 RMK A01 T00640027  RH  077%=      5-min Rain = 0
KWE2 250929Z 01003KT 06/03 A3016 RMK A01 T00640027  RH  077%=      5-min Rain = 0
KWE2 250930Z 01003KT 06/03 A3016 RMK A01 T00640027  RH  077%=      5-min Rain = 0
KWE2 250931Z 02003KT 06/03 A3016 RMK A01 T00640026  RH  077%=      5-min Rain = 0
KWE2 250932Z 02004KT 06/03 A3016 RMK A01 T00630026  RH  077%=      5-min Rain = 0
KWE2 250933Z 02004KT 06/03 A3016 RMK A01 T00630026  RH  077%=      5-min Rain = 0
KWE2 250934Z 02004KT 06/03 A3016 RMK A01 T00630026  RH  077%=      5-min Rain = 0
KWE2 250935Z 01004KT 06/03 A3016 RMK A01 T00620025  RH  077%=      5-min Rain = 0
KWE2 250936Z 01005KT 06/03 A3016 RMK A01 T00620026  RH  078%=      5-min Rain = 0
KWE2 250937Z 01006KT 06/03 A3016 RMK A01 T00620026  RH  078%=      5-min Rain = 0
KWE2 250938Z 01006KT 06/03 A3016 RMK A01 T00610025  RH  078%=      5-min Rain = 0
KWE2 250939Z 00005KT 06/02 A3016 RMK A01 T00600024  RH  077%=      5-min Rain = 0
KWE2 250940Z 00005KT 06/02 A3016 RMK A01 T00580022  RH  077%=      5-min Rain = 0
KWE2 250941Z 00004KT 06/02 A3016 RMK A01 T00570023  RH  079%=      5-min Rain = 0
KWE2 250942Z 01005KT 06/02 A3016 RMK A01 T00570024  RH  079%=      5-min Rain = 0
KWE2 250943Z 01005KT 06/02 A3016 RMK A01 T00570023  RH  079%=      5-min Rain = 0
KWE2 250944Z 02005KT 06/02 A3016 RMK A01 T00560022  RH  079%=      5-min Rain = 0
KWE2 250945Z 02005KT 06/02 A3016 RMK A01 T00550020  RH  078%=      5-min Rain = 0
KWE2 250946Z 02005KT 05/02 A3016 RMK A01 T00530019  RH  079%=      5-min Rain = 0
KWE2 250947Z 02005KT 05/02 A3016 RMK A01 T00530020  RH  079%=      5-min Rain = 0
KWE2 250948Z 02005KT 05/02 A3016 RMK A01 T00520020  RH  080%=      5-min Rain = 0
KWE2 250949Z 02005KT 05/02 A3016 RMK A01 T00520021  RH  080%=      5-min Rain = 0
KWE2 250950Z 02005KT 05/02 A3017 RMK A01 T00510021  RH  081%=      5-min Rain = 0
KWE2 250951Z 02006KT 05/03 A3017 RMK A01 T00520025  RH  083%=      5-min Rain = 0
KWE2 250952Z 02006KT 05/03 A3017 RMK A01 T00530028  RH  084%=      5-min Rain = 0
KWE2 250953Z 02005KT 05/03 A3017 RMK A01 T00540029  RH  084%=      5-min Rain = 0
KWE2 250954Z 02005KT 06/03 A3016 RMK A01 T00550031  RH  084%=      5-min Rain = 0
KWE2 250955Z 02005KT 06/03 A3017 RMK A01 T00570032  RH  084%=      5-min Rain = 0
KWE2 250956Z 01005KT 06/03 A3017 RMK A01 T00590032  RH  083%=      5-min Rain = 0
KWE2 250957Z 01006KT 06/03 A3017 RMK A01 T00600031  RH  082%=      5-min Rain = 0
KWE2 250958Z 00007KT 06/03 A3017 RMK A01 T00610031  RH  082%=      5-min Rain = 0
KWE2 250959Z 00005KT 06/03 A3016 RMK A01 T00610031  RH  081%=      5-min Rain = 0
KWE2 251000Z 00005KT 06/03 A3016 RMK A01 T00600025  RH  078%=      5-min Rain = 0
KWE2 251001Z 36004KT 06/02 A3016 RMK A01 T00570021  RH  078%=      5-min Rain = 0
KWE2 251002Z 35003KT 05/02 A3016 RMK A01 T00540019  RH  078%=      5-min Rain = 0
KWE2 251003Z 34003KT 05/02 A3016 RMK A01 T00510016  RH  078%=      5-min Rain = 0
KWE2 251004Z 34003KT 05/02 A3016 RMK A01 T00490016  RH  079%=      5-min Rain = 0
KWE2 251005Z 34003KT 05/02 A3017 RMK A01 T00480016  RH  080%=      5-min Rain = 0
KWE2 251006Z 34003KT 05/02 A3017 RMK A01 T00470016  RH  080%=      5-min Rain = 0
KWE2 251007Z 35003KT 05/02 A3017 RMK A01 T00470017  RH  081%=      5-min Rain = 0
KWE2 251008Z 36003KT 05/02 A3017 RMK A01 T00470017  RH  081%=      5-min Rain = 0
KWE2 251009Z 00003KT 05/02 A3017 RMK A01 T00470017  RH  081%=      5-min Rain = 0
KWE2 251010Z 01004KT 05/02 A3017 RMK A01 T00470017  RH  081%=      5-min Rain = 0
KWE2 251011Z 01004KT 05/02 A3017 RMK A01 T00470019  RH  082%=      5-min Rain = 0
KWE2 251012Z 01004KT 05/02 A3017 RMK A01 T00480020  RH  082%=      5-min Rain = 0
KWE2 251013Z 36005KT 05/02 A3017 RMK A01 T00490021  RH  082%=      5-min Rain = 0
KWE2 251014Z 00005KT 05/02 A3017 RMK A01 T00490020  RH  081%=      5-min Rain = 0
KWE2 251015Z 00005KT 05/02 A3017 RMK A01 T00490021  RH  082%=      5-min Rain = 0
KWE2 251016Z 01005KT 05/02 A3017 RMK A01 T00500023  RH  082%=      5-min Rain = 0
KWE2 251017Z 01005KT 05/02 A3017 RMK A01 T00510024  RH  082%=      5-min Rain = 0
KWE2 251018Z 01006KT 05/02 A3017 RMK A01 T00510023  RH  082%=      5-min Rain = 0
KWE2 251019Z 01007KT 05/02 A3017 RMK A01 T00520024  RH  082%=      5-min Rain = 0
KWE2 251020Z 02007KT 05/02 A3017 RMK A01 T00510024  RH  083%=      5-min Rain = 0
KWE2 251021Z 02007KT 05/03 A3017 RMK A01 T00500025  RH  084%=      5-min Rain = 0
KWE2 251022Z 02007KT 05/03 A3017 RMK A01 T00500027  RH  085%=      5-min Rain = 0
KWE2 251023Z 02007KT 05/03 A3017 RMK A01 T00520030  RH  086%=      5-min Rain = 0
KWE2 251024Z 03007KT 05/03 A3017 RMK A01 T00530033  RH  087%=      5-min Rain = 0
KWE2 251025Z 03007KT 06/04 A3017 RMK A01 T00560036  RH  087%=      5-min Rain = 0
KWE2 251026Z 03008KT 06/04 A3017 RMK A01 T00580038  RH  087%=      5-min Rain = 0
KWE2 251027Z 03008KT 06/04 A3017 RMK A01 T00610039  RH  086%=      5-min Rain = 0
KWE2 251028Z 03008KT 06/04 A3017 RMK A01 T00630039  RH  085%=      5-min Rain = 0
KWE2 251029Z 03008KT 06/04 A3017 RMK A01 T00620037  RH  084%=      5-min Rain = 0
KWE2 251030Z 03008KT 06/04 A3017 RMK A01 T00630036  RH  083%=      5-min Rain = 0
KWE2 251031Z 03008KT 06/04 A3017 RMK A01 T00620036  RH  083%=      5-min Rain = 0
KWE2 251032Z 03008KT 06/04 A3018 RMK A01 T00630036  RH  083%=      5-min Rain = 0
KWE2 251033Z 03009KT 06/04 A3018 RMK A01 T00620036  RH  083%=      5-min Rain = 0
KWE2 251034Z 03009KT 06/04 A3018 RMK A01 T00620036  RH  083%=      5-min Rain = 0
KWE2 251035Z 03009KT 06/04 A3018 RMK A01 T00620037  RH  084%=      5-min Rain = 0
KWE2 251036Z 04008KT 06/04 A3018 RMK A01 T00630038  RH  084%=      5-min Rain = 0
KWE2 251037Z 04008KT 06/04 A3018 RMK A01 T00640037  RH  083%=      5-min Rain = 0
KWE2 251038Z 03008KT 06/04 A3018 RMK A01 T00640037  RH  083%=      5-min Rain = 0
KWE2 251039Z 03008KT 06/04 A3018 RMK A01 T00630036  RH  083%=      5-min Rain = 0
KWE2 251040Z 03007KT 06/04 A3018 RMK A01 T00620035  RH  083%=      5-min Rain = 0
KWE2 251041Z 04007KT 06/04 A3018 RMK A01 T00620035  RH  083%=      5-min Rain = 0
KWE2 251042Z 04007KT 06/04 A3018 RMK A01 T00610035  RH  083%=      5-min Rain = 0
KWE2 251043Z 04008KT 06/04 A3018 RMK A01 T00610035  RH  083%=      5-min Rain = 0
KWE2 251044Z 04009KT 06/04 A3018 RMK A01 T00610036  RH  084%=      5-min Rain = 0
KWE2 251045Z 04009KT 06/04 A3018 RMK A01 T00620037  RH  084%=      5-min Rain = 0
KWE2 251046Z 04009KT 06/04 A3018 RMK A01 T00640039  RH  084%=      5-min Rain = 0
KWE2 251047Z 04008KT 07/04 A3018 RMK A01 T00650038  RH  083%=      5-min Rain = 0
KWE2 251048Z 04007KT 07/04 A3018 RMK A01 T00650039  RH  083%=      5-min Rain = 0
KWE2 251049Z 04007KT 07/04 A3018 RMK A01 T00650039  RH  083%=      5-min Rain = 0
KWE2 251050Z 04007KT 07/04 A3018 RMK A01 T00650038  RH  083%=      5-min Rain = 0
KWE2 251051Z 04008KT 06/04 A3018 RMK A01 T00640037  RH  083%=      5-min Rain = 0
KWE2 251052Z 04008KT 06/04 A3019 RMK A01 T00630037  RH  083%=      5-min Rain = 0
KWE2 251053Z 04008KT 06/04 A3019 RMK A01 T00620037  RH  084%=      5-min Rain = 0
KWE2 251054Z 04008KT 06/04 A3019 RMK A01 T00620037  RH  084%=      5-min Rain = 0
KWE2 251055Z 05007KT 06/04 A3019 RMK A01 T00620038  RH  085%=      5-min Rain = 0
KWE2 251056Z 05007KT 06/04 A3018 RMK A01 T00630039  RH  085%=      5-min Rain = 0
KWE2 251057Z 04008KT 07/04 A3018 RMK A01 T00650041  RH  085%=      5-min Rain = 0
KWE2 251058Z 04007KT 07/04 A3018 RMK A01 T00660041  RH  084%=      5-min Rain = 0
KWE2 251059Z 04007KT 07/04 A3018 RMK A01 T00660040  RH  083%=      5-min Rain = 0
KWE2 251100Z 04007KT 07/04 A3018 RMK A01 T00660040  RH  084%=      5-min Rain = 0
KWE2 251101Z 04008KT 07/04 A3019 RMK A01 T00650040  RH  084%=      5-min Rain = 0
KWE2 251102Z 04008KT 07/04 A3019 RMK A01 T00650040  RH  084%=      5-min Rain = 0
KWE2 251103Z 04009KT 06/04 A3019 RMK A01 T00640040  RH  084%=      5-min Rain = 0
KWE2 251104Z 04009KT 06/04 A3019 RMK A01 T00640039  RH  084%=      5-min Rain = 0
KWE2 251105Z 04008KT 06/04 A3019 RMK A01 T00640040  RH  084%=      5-min Rain = 0
KWE2 251106Z 04009KT 06/04 A3019 RMK A01 T00640040  RH  084%=      5-min Rain = 0
KWE2 251107Z 04008KT 07/04 A3019 RMK A01 T00650040  RH  084%=      5-min Rain = 0
KWE2 251108Z 05008KT 07/04 A3019 RMK A01 T00650041  RH  084%=      5-min Rain = 0
KWE2 251109Z 04009KT 07/04 A3019 RMK A01 T00650041  RH  084%=      5-min Rain = 0
KWE2 251110Z 04008KT 07/04 A3019 RMK A01 T00660041  RH  084%=      5-min Rain = 0
KWE2 251111Z 04008KT 07/04 A3019 RMK A01 T00670042  RH  084%=      5-min Rain = 0
KWE2 251112Z 04008KT 07/04 A3019 RMK A01 T00670042  RH  084%=      5-min Rain = 0
KWE2 251113Z 04008KT 07/04 A3019 RMK A01 T00660041  RH  084%=      5-min Rain = 0
KWE2 251114Z 04008KT 07/04 A3019 RMK A01 T00650040  RH  084%=      5-min Rain = 0
KWE2 251115Z 04008KT 06/04 A3019 RMK A01 T00640040  RH  084%=      5-min Rain = 0
KWE2 251116Z 04007KT 06/04 A3019 RMK A01 T00630039  RH  085%=      5-min Rain = 0
KWE2 251117Z 03007KT 06/04 A3019 RMK A01 T00620039  RH  085%=      5-min Rain = 0
KWE2 251118Z 03007KT 06/04 A3019 RMK A01 T00610038  RH  085%=      5-min Rain = 0
KWE2 251119Z 02007KT 06/04 A3019 RMK A01 T00600038  RH  086%=      5-min Rain = 0
KWE2 251120Z 02007KT 06/04 A3019 RMK A01 T00590037  RH  086%=      5-min Rain = 0
KWE2 251121Z 02007KT 06/04 A302 RMK A01 T00590037  RH  086%=      5-min Rain = 0
KWE2 251122Z 02007KT 06/04 A302 RMK A01 T00580036  RH  086%=      5-min Rain = 0
KWE2 251123Z 03007KT 06/04 A302 RMK A01 T00570036  RH  086%=      5-min Rain = 0
KWE2 251124Z 03007KT 06/04 A302 RMK A01 T00560035  RH  087%=      5-min Rain = 0
KWE2 251125Z 03007KT 06/04 A302 RMK A01 T00550035  RH  087%=      5-min Rain = 0
KWE2 251126Z 03007KT 05/04 A302 RMK A01 T00540035  RH  087%=      5-min Rain = 0
KWE2 251127Z 03007KT 05/04 A302 RMK A01 T00540035  RH  088%=      5-min Rain = 0
KWE2 251128Z 02007KT 05/04 A302 RMK A01 T00540036  RH  088%=      5-min Rain = 0
KWE2 251129Z 02007KT 05/04 A302 RMK A01 T00530035  RH  089%=      5-min Rain = 0
KWE2 251130Z 02006KT 05/04 A302 RMK A01 T00530036  RH  089%=      5-min Rain = 0
KWE2 251131Z 02006KT 05/04 A302 RMK A01 T00530035  RH  089%=      5-min Rain = 0
KWE2 251132Z 02005KT 05/04 A302 RMK A01 T00520035  RH  089%=      5-min Rain = 0
KWE2 251133Z 02006KT 05/04 A302 RMK A01 T00520035  RH  089%=      5-min Rain = 0
KWE2 251134Z 02006KT 05/04 A302 RMK A01 T00520035  RH  089%=      5-min Rain = 0
KWE2 251135Z 02006KT 05/04 A302 RMK A01 T00520036  RH  089%=      5-min Rain = 0
KWE2 251136Z 02006KT 05/04 A302 RMK A01 T00520036  RH  089%=      5-min Rain = 0
KWE2 251137Z 02005KT 05/04 A302 RMK A01 T00520036  RH  089%=      5-min Rain = 0
KWE2 251138Z 01006KT 05/04 A302 RMK A01 T00520035  RH  089%=      5-min Rain = 0
KWE2 251139Z 01006KT 05/04 A302 RMK A01 T00520035  RH  089%=      5-min Rain = 0
KWE2 251140Z 01005KT 05/04 A302 RMK A01 T00520035  RH  089%=      5-min Rain = 0
KWE2 251141Z 01005KT 05/04 A302 RMK A01 T00520036  RH  089%=      5-min Rain = 0
KWE2 251142Z 01005KT 05/04 A302 RMK A01 T00520036  RH  089%=      5-min Rain = 0
KWE2 251143Z 01005KT 05/04 A302 RMK A01 T00510035  RH  089%=      5-min Rain = 0
KWE2 251144Z 02005KT 05/04 A302 RMK A01 T00510035  RH  090%=      5-min Rain = 0
KWE2 251145Z 02005KT 05/03 A302 RMK A01 T00500034  RH  090%=      5-min Rain = 0
KWE2 251146Z 02006KT 05/04 A302 RMK A01 T00500035  RH  090%=      5-min Rain = 0
KWE2 251147Z 02006KT 05/04 A302 RMK A01 T00500035  RH  090%=      5-min Rain = 0
KWE2 251148Z 02005KT 05/04 A302 RMK A01 T00500035  RH  090%=      5-min Rain = 0
KWE2 251149Z 02005KT 05/04 A302 RMK A01 T00490035  RH  090%=      5-min Rain = 0
KWE2 251150Z 02005KT 05/04 A302 RMK A01 T00490035  RH  091%=      5-min Rain = 0
KWE2 251151Z 02005KT 05/04 A302 RMK A01 T00490035  RH  091%=      5-min Rain = 0
KWE2 251152Z 02005KT 05/04 A302 RMK A01 T00490035  RH  091%=      5-min Rain = 0
KWE2 251153Z 02005KT 05/04 A302 RMK A01 T00490036  RH  091%=      5-min Rain = 0
KWE2 251154Z 01005KT 05/04 A302 RMK A01 T00490036  RH  091%=      5-min Rain = 0
KWE2 251155Z 01006KT 05/04 A302 RMK A01 T00500036  RH  091%=      5-min Rain = 0
KWE2 251156Z 01006KT 05/04 A302 RMK A01 T00500037  RH  091%=      5-min Rain = 0
KWE2 251157Z 01006KT 05/04 A302 RMK A01 T00510037  RH  091%=      5-min Rain = 0
KWE2 251158Z 00006KT 05/04 A302 RMK A01 T00510037  RH  091%=      5-min Rain = 0
KWE2 251159Z 00006KT 05/04 A302 RMK A01 T00520038  RH  091%=      5-min Rain = 0
KWE2 251200Z 01006KT 05/04 A302 RMK A01 T00520038  RH  090%=      5-min Rain = 0
KWE2 251201Z 01006KT 05/04 A302 RMK A01 T00520037  RH  090%=      5-min Rain = 0
KWE2 251202Z 02006KT 05/04 A3021 RMK A01 T00520037  RH  090%=      5-min Rain = 0
KWE2 251203Z 02007KT 05/04 A3021 RMK A01 T00520037  RH  090%=      5-min Rain = 0
KWE2 251204Z 02006KT 05/04 A3021 RMK A01 T00510037  RH  090%=      5-min Rain = 0
KWE2 251205Z 02007KT 05/04 A3021 RMK A01 T00500036  RH  091%=      5-min Rain = 0
KWE2 251206Z 02006KT 05/04 A3021 RMK A01 T00500036  RH  091%=      5-min Rain = 0
KWE2 251207Z 02007KT 05/04 A3021 RMK A01 T00490036  RH  091%=      5-min Rain = 0
KWE2 251208Z 03006KT 05/04 A3021 RMK A01 T00490038  RH  092%=      5-min Rain = 0
KWE2 251209Z 03006KT 05/04 A3021 RMK A01 T00500039  RH  093%=      5-min Rain = 0
KWE2 251210Z 03006KT 05/04 A3021 RMK A01 T00510040  RH  093%=      5-min Rain = 0
KWE2 251211Z 02006KT 05/04 A3021 RMK A01 T00510039  RH  092%=      5-min Rain = 0
KWE2 251212Z 02006KT 05/04 A3021 RMK A01 T00510039  RH  092%=      5-min Rain = 0
KWE2 251213Z 02006KT 05/04 A3021 RMK A01 T00510038  RH  091%=      5-min Rain = 0
KWE2 251214Z 01006KT 05/04 A3021 RMK A01 T00500038  RH  092%=      5-min Rain = 0
KWE2 251215Z 01006KT 05/04 A3021 RMK A01 T00510038  RH  092%=      5-min Rain = 0
KWE2 251216Z 01006KT 05/04 A3021 RMK A01 T00510038  RH  091%=      5-min Rain = 0
KWE2 251217Z 01005KT 05/04 A3021 RMK A01 T00500037  RH  091%=      5-min Rain = 0
KWE2 251218Z 01005KT 05/04 A3021 RMK A01 T00500037  RH  091%=      5-min Rain = 0
KWE2 251219Z 01005KT 05/04 A3021 RMK A01 T00490036  RH  091%=      5-min Rain = 0
KWE2 251220Z 01005KT 05/04 A3021 RMK A01 T00490035  RH  091%=      5-min Rain = 0
KWE2 251221Z 01005KT 05/04 A3021 RMK A01 T00480035  RH  091%=      5-min Rain = 0
KWE2 251222Z 01005KT 05/04 A3022 RMK A01 T00470035  RH  092%=      5-min Rain = 0
KWE2 251223Z 01005KT 05/04 A3022 RMK A01 T00470035  RH  092%=      5-min Rain = 0
KWE2 251224Z 01004KT 05/04 A3022 RMK A01 T00470035  RH  092%=      5-min Rain = 0
KWE2 251225Z 01004KT 05/04 A3022 RMK A01 T00470035  RH  092%=      5-min Rain = 0
KWE2 251226Z 01004KT 05/04 A3022 RMK A01 T00470035  RH  092%=      5-min Rain = 0
KWE2 251227Z 01003KT 05/04 A3022 RMK A01 T00470036  RH  092%=      5-min Rain = 0
KWE2 251228Z 01003KT 05/04 A3022 RMK A01 T00470035  RH  092%=      5-min Rain = 0
KWE2 251229Z 01003KT 05/04 A3022 RMK A01 T00480035  RH  092%=      5-min Rain = 0
KWE2 251230Z 02002KT 05/04 A3022 RMK A01 T00480035  RH  091%=      5-min Rain = 0
KWE2 251231Z 02002KT 05/04 A3022 RMK A01 T00480035  RH  091%=      5-min Rain = 0
KWE2 251232Z 03003KT 05/03 A3022 RMK A01 T00480034  RH  091%=      5-min Rain = 0
KWE2 251233Z 02002KT 05/03 A3022 RMK A01 T00470032  RH  090%=      5-min Rain = 0
KWE2 251234Z 02002KT 05/03 A3022 RMK A01 T00460032  RH  090%=      5-min Rain = 0
KWE2 251235Z 01003KT 05/03 A3022 RMK A01 T00460032  RH  091%=      5-min Rain = 0
KWE2 251236Z 02003KT 05/03 A3022 RMK A01 T00450032  RH  091%=      5-min Rain = 0
KWE2 251237Z 01003KT 05/03 A3022 RMK A01 T00450033  RH  092%=      5-min Rain = 0
KWE2 251238Z 01004KT 05/03 A3022 RMK A01 T00450032  RH  091%=      5-min Rain = 0
KWE2 251239Z 00004KT 05/03 A3022 RMK A01 T00450031  RH  091%=      5-min Rain = 0
KWE2 251240Z 35005KT 04/03 A3022 RMK A01 T00440032  RH  092%=      5-min Rain = 0
KWE2 251241Z 35005KT 04/03 A3022 RMK A01 T00440033  RH  092%=      5-min Rain = 0
KWE2 251242Z 35005KT 05/03 A3022 RMK A01 T00450033  RH  092%=      5-min Rain = 0
KWE2 251243Z 35006KT 05/03 A3022 RMK A01 T00450033  RH  092%=      5-min Rain = 0
KWE2 251244Z 35006KT 05/03 A3022 RMK A01 T00450033  RH  092%=      5-min Rain = 0
KWE2 251245Z 35005KT 05/03 A3022 RMK A01 T00450033  RH  092%=      5-min Rain = 0
KWE2 251246Z 35005KT 04/03 A3022 RMK A01 T00440033  RH  092%=      5-min Rain = 0
KWE2 251247Z 34005KT 04/03 A3022 RMK A01 T00440033  RH  093%=      5-min Rain = 0
KWE2 251248Z 35006KT 04/03 A3022 RMK A01 T00440033  RH  093%=      5-min Rain = 0
KWE2 251249Z 35005KT 04/03 A3022 RMK A01 T00440034  RH  093%=      5-min Rain = 0
KWE2 251250Z 35005KT 04/03 A3022 RMK A01 T00440034  RH  093%=      5-min Rain = 0
KWE2 251251Z 36004KT 04/03 A3022 RMK A01 T00440033  RH  093%=      5-min Rain = 0
KWE2 251252Z 36004KT 04/03 A3022 RMK A01 T00430031  RH  092%=      5-min Rain = 0
KWE2 251253Z 00005KT 04/03 A3022 RMK A01 T00420030  RH  092%=      5-min Rain = 0
KWE2 251254Z 00005KT 04/03 A3023 RMK A01 T00410029  RH  092%=      5-min Rain = 0
KWE2 251255Z 00005KT 04/03 A3023 RMK A01 T00400028  RH  092%=      5-min Rain = 0
KWE2 251256Z 00005KT 04/03 A3023 RMK A01 T00390028  RH  093%=      5-min Rain = 0
KWE2 251257Z 00005KT 04/03 A3023 RMK A01 T00400030  RH  094%=      5-min Rain = 0
KWE2 251258Z 00005KT 04/03 A3023 RMK A01 T00410032  RH  094%=      5-min Rain = 0
KWE2 251259Z 00005KT 04/03 A3023 RMK A01 T00420033  RH  094%=      5-min Rain = 0
KWE2 251300Z 00005KT 04/03 A3023 RMK A01 T00430033  RH  093%=      5-min Rain = 0
KWE2 251301Z 36004KT 04/03 A3023 RMK A01 T00430032  RH  092%=      5-min Rain = 0
KWE2 251302Z 35004KT 04/03 A3023 RMK A01 T00430030  RH  091%=      5-min Rain = 0
KWE2 251303Z 35004KT 04/03 A3023 RMK A01 T00420029  RH  091%=      5-min Rain = 0
KWE2 251304Z 35004KT 04/03 A3023 RMK A01 T00420029  RH  091%=      5-min Rain = 0
KWE2 251305Z 00004KT 04/03 A3023 RMK A01 T00420029  RH  091%=      5-min Rain = 0
KWE2 251306Z 00004KT 04/03 A3023 RMK A01 T00410029  RH  091%=      5-min Rain = 0
KWE2 251307Z 00004KT 04/03 A3023 RMK A01 T00420029  RH  092%=      5-min Rain = 0
KWE2 251308Z 00003KT 04/03 A3023 RMK A01 T00410029  RH  092%=      5-min Rain = 0
KWE2 251309Z 00003KT 04/03 A3023 RMK A01 T00420029  RH  092%=      5-min Rain = 0
KWE2 251310Z 36003KT 04/03 A3023 RMK A01 T00430029  RH  091%=      5-min Rain = 0
KWE2 251311Z 35003KT 04/03 A3023 RMK A01 T00420028  RH  091%=      5-min Rain = 0
KWE2 251312Z 35003KT 04/03 A3023 RMK A01 T00420028  RH  091%=      5-min Rain = 0
KWE2 251313Z 34003KT 04/03 A3023 RMK A01 T00420028  RH  091%=      5-min Rain = 0
KWE2 251314Z 35003KT 04/03 A3023 RMK A01 T00420028  RH  091%=      5-min Rain = 0
KWE2 251315Z 35003KT 04/03 A3023 RMK A01 T00420028  RH  091%=      5-min Rain = 0
KWE2 251316Z 35003KT 04/03 A3023 RMK A01 T00410028  RH  091%=      5-min Rain = 0
KWE2 251317Z 35003KT 04/03 A3023 RMK A01 T00420028  RH  091%=      5-min Rain = 0
KWE2 251318Z 35003KT 04/03 A3023 RMK A01 T00420028  RH  091%=      5-min Rain = 0
KWE2 251319Z 35003KT 04/03 A3024 RMK A01 T00430029  RH  091%=      5-min Rain = 0
KWE2 251320Z 34003KT 04/03 A3024 RMK A01 T00440029  RH  091%=      5-min Rain = 0
KWE2 251321Z 34004KT 04/03 A3024 RMK A01 T00440030  RH  090%=      5-min Rain = 0
KWE2 251322Z 34004KT 05/03 A3024 RMK A01 T00450031  RH  090%=      5-min Rain = 0
KWE2 251323Z 33004KT 05/03 A3024 RMK A01 T00460031  RH  090%=      5-min Rain = 0
KWE2 251324Z 34004KT 05/03 A3024 RMK A01 T00470033  RH  091%=      5-min Rain = 0
KWE2 251325Z 34004KT 05/03 A3024 RMK A01 T00480033  RH  090%=      5-min Rain = 0
KWE2 251326Z 34004KT 05/03 A3024 RMK A01 T00480034  RH  090%=      5-min Rain = 0
KWE2 251327Z 34003KT 05/03 A3024 RMK A01 T00490034  RH  090%=      5-min Rain = 0
KWE2 251328Z 34003KT 05/04 A3024 RMK A01 T00500035  RH  090%=      5-min Rain = 0
KWE2 251329Z 34003KT 05/04 A3024 RMK A01 T00510035  RH  090%=      5-min Rain = 0
KWE2 251330Z 34003KT 05/04 A3024 RMK A01 T00520036  RH  090%=      5-min Rain = 0
KWE2 251331Z 34002KT 05/04 A3024 RMK A01 T00530037  RH  090%=      5-min Rain = 0
KWE2 251332Z 34002KT 05/04 A3024 RMK A01 T00540038  RH  089%=      5-min Rain = 0
KWE2 251333Z 34002KT 06/04 A3024 RMK A01 T00550039  RH  089%=      5-min Rain = 0
KWE2 251334Z 34003KT 06/04 A3024 RMK A01 T00560039  RH  089%=      5-min Rain = 0
KWE2 251335Z 35003KT 06/04 A3024 RMK A01 T00570039  RH  088%=      5-min Rain = 0
KWE2 251336Z 35003KT 06/04 A3024 RMK A01 T00580040  RH  088%=      5-min Rain = 0
KWE2 251337Z 36003KT 06/04 A3024 RMK A01 T00590041  RH  088%=      5-min Rain = 0
KWE2 251338Z 36003KT 06/04 A3024 RMK A01 T00600042  RH  088%=      5-min Rain = 0
KWE2 251339Z 00003KT 06/04 A3024 RMK A01 T00610041  RH  087%=      5-min Rain = 0
KWE2 251340Z 36003KT 06/04 A3024 RMK A01 T00620041  RH  087%=      5-min Rain = 0
KWE2 251341Z 36003KT 06/04 A3024 RMK A01 T00620042  RH  087%=      5-min Rain = 0
KWE2 251342Z 36003KT 06/04 A3024 RMK A01 T00640044  RH  087%=      5-min Rain = 0
KWE2 251343Z 00003KT 07/04 A3024 RMK A01 T00650044  RH  087%=      5-min Rain = 0
KWE2 251344Z 00003KT 07/05 A3024 RMK A01 T00660045  RH  087%=      5-min Rain = 0
KWE2 251345Z 36003KT 07/05 A3024 RMK A01 T00670048  RH  087%=      5-min Rain = 0
KWE2 251346Z 00003KT 07/05 A3024 RMK A01 T00700049  RH  087%=      5-min Rain = 0
KWE2 251347Z 00003KT 07/05 A3024 RMK A01 T00710050  RH  086%=      5-min Rain = 0
KWE2 251348Z 00003KT 07/05 A3024 RMK A01 T00730052  RH  086%=      5-min Rain = 0
KWE2 251349Z 00003KT 08/05 A3025 RMK A01 T00760053  RH  086%=      5-min Rain = 0
KWE2 251350Z 01003KT 08/05 A3025 RMK A01 T00770053  RH  085%=      5-min Rain = 0
KWE2 251351Z 00003KT 08/05 A3025 RMK A01 T00780053  RH  084%=      5-min Rain = 0
KWE2 251352Z 01003KT 08/05 A3025 RMK A01 T00790053  RH  084%=      5-min Rain = 0
KWE2 251353Z 01003KT 08/05 A3025 RMK A01 T00800053  RH  083%=      5-min Rain = 0
KWE2 251354Z 36003KT 08/05 A3025 RMK A01 T00800053  RH  083%=      5-min Rain = 0
KWE2 251355Z 01002KT 08/05 A3025 RMK A01 T00810054  RH  083%=      5-min Rain = 0
KWE2 251356Z 02003KT 08/05 A3025 RMK A01 T00820054  RH  083%=      5-min Rain = 0
KWE2 251357Z 36002KT 08/06 A3025 RMK A01 T00830055  RH  083%=      5-min Rain = 0
KWE2 251358Z 02002KT 08/05 A3025 RMK A01 T00830054  RH  082%=      5-min Rain = 0
KWE2 251359Z 03002KT 08/06 A3025 RMK A01 T00840055  RH  082%=      5-min Rain = 0
KWE2 251400Z 02002KT 09/06 A3025 RMK A01 T00850055  RH  082%=      5-min Rain = 0
KWE2 251401Z 02002KT 09/06 A3025 RMK A01 T00860056  RH  082%=      5-min Rain = 0
KWE2 251402Z 03003KT 09/06 A3025 RMK A01 T00880057  RH  081%=      5-min Rain = 0
KWE2 251403Z 03003KT 09/06 A3025 RMK A01 T00890058  RH  081%=      5-min Rain = 0
KWE2 251404Z 03003KT 09/06 A3025 RMK A01 T00910059  RH  081%=      5-min Rain = 0
KWE2 251405Z 03003KT 09/06 A3025 RMK A01 T00920059  RH  080%=      5-min Rain = 0
KWE2 251406Z 04003KT 09/06 A3025 RMK A01 T00940062  RH  080%=      5-min Rain = 0
KWE2 251407Z 04004KT 10/06 A3025 RMK A01 T00950059  RH  078%=      5-min Rain = 0
KWE2 251408Z 05003KT 10/06 A3025 RMK A01 T00950059  RH  078%=      5-min Rain = 0
KWE2 251409Z 04003KT 10/06 A3025 RMK A01 T00960060  RH  078%=      5-min Rain = 0
KWE2 251410Z 04004KT 10/06 A3025 RMK A01 T00970060  RH  078%=      5-min Rain = 0
KWE2 251411Z 04003KT 10/06 A3025 RMK A01 T00970058  RH  077%=      5-min Rain = 0
KWE2 251412Z 07004KT 10/06 A3025 RMK A01 T00980060  RH  078%=      5-min Rain = 0
KWE2 251413Z 05004KT 10/06 A3025 RMK A01 T00990059  RH  076%=      5-min Rain = 0
KWE2 251414Z 05003KT 10/06 A3026 RMK A01 T00990060  RH  077%=      5-min Rain = 0
KWE2 251415Z 04004KT 10/06 A3026 RMK A01 T00990059  RH  076%=      5-min Rain = 0
KWE2 251416Z 05005KT 10/06 A3026 RMK A01 T00990059  RH  076%=      5-min Rain = 0
KWE2 251417Z 04005KT 10/06 A3026 RMK A01 T00980059  RH  077%=      5-min Rain = 0
KWE2 251418Z 04004KT 10/06 A3026 RMK A01 T00990060  RH  077%=      5-min Rain = 0
KWE2 251419Z 04004KT 10/06 A3026 RMK A01 T01000062  RH  077%=      5-min Rain = 0
KWE2 251420Z 05004KT 10/06 A3026 RMK A01 T01010062  RH  077%=      5-min Rain = 0
KWE2 251421Z 06004KT 10/06 A3026 RMK A01 T01020061  RH  076%=      5-min Rain = 0
KWE2 251422Z 06004KT 10/06 A3026 RMK A01 T01030061  RH  076%=      5-min Rain = 0
KWE2 251423Z 06005KT 10/06 A3026 RMK A01 T01030061  RH  075%=      5-min Rain = 0
KWE2 251424Z 06005KT 10/06 A3026 RMK A01 T01040062  RH  075%=      5-min Rain = 0
KWE2 251425Z 06005KT 11/06 A3026 RMK A01 T01060061  RH  074%=      5-min Rain = 0
KWE2 251426Z 06006KT 11/06 A3026 RMK A01 T01050061  RH  074%=      5-min Rain = 0
KWE2 251427Z 06006KT 11/06 A3026 RMK A01 T01060061  RH  074%=      5-min Rain = 0
KWE2 251428Z 06006KT 11/06 A3026 RMK A01 T01070062  RH  074%=      5-min Rain = 0
KWE2 251429Z 06005KT 11/06 A3026 RMK A01 T01080063  RH  074%=      5-min Rain = 0
KWE2 251430Z 06005KT 11/06 A3026 RMK A01 T01090062  RH  073%=      5-min Rain = 0
KWE2 251431Z 08007KT 11/06 A3027 RMK A01 T01100062  RH  072%=      5-min Rain = 0
KWE2 251432Z 07006KT 11/06 A3027 RMK A01 T01110062  RH  072%=      5-min Rain = 0
KWE2 251433Z 07006KT 11/06 A3027 RMK A01 T01110062  RH  072%=      5-min Rain = 0
KWE2 251434Z 07005KT 11/06 A3027 RMK A01 T01130064  RH  072%=      5-min Rain = 0
KWE2 251435Z 06006KT 11/06 A3027 RMK A01 T01130063  RH  071%=      5-min Rain = 0
KWE2 251436Z 07006KT 11/06 A3027 RMK A01 T01140063  RH  071%=      5-min Rain = 0
KWE2 251437Z 08006KT 12/06 A3027 RMK A01 T01150063  RH  070%=      5-min Rain = 0
KWE2 251438Z 07006KT 12/06 A3027 RMK A01 T01150063  RH  071%=      5-min Rain = 0
KWE2 251439Z 08006KT 12/06 A3027 RMK A01 T01150064  RH  071%=      5-min Rain = 0
KWE2 251440Z 08006KT 12/06 A3027 RMK A01 T01160063  RH  070%=      5-min Rain = 0
KWE2 251441Z 08005KT 12/06 A3027 RMK A01 T01160064  RH  070%=      5-min Rain = 0
KWE2 251442Z 06007KT 12/06 A3027 RMK A01 T01160063  RH  070%=      5-min Rain = 0
KWE2 251443Z 06008KT 12/06 A3027 RMK A01 T01160064  RH  070%=      5-min Rain = 0
KWE2 251444Z 07007KT 12/06 A3027 RMK A01 T01160064  RH  070%=      5-min Rain = 0
KWE2 251445Z 08006KT 12/06 A3027 RMK A01 T01160063  RH  070%=      5-min Rain = 0
KWE2 251446Z 07005KT 12/06 A3027 RMK A01 T01160064  RH  071%=      5-min Rain = 0
KWE2 251447Z 06005KT 12/06 A3027 RMK A01 T01170063  RH  070%=      5-min Rain = 0
KWE2 251448Z 07005KT 12/07 A3027 RMK A01 T01180065  RH  070%=      5-min Rain = 0
KWE2 251449Z 06007KT 12/06 A3027 RMK A01 T01180063  RH  069%=      5-min Rain = 0
KWE2 251450Z 08007KT 12/06 A3027 RMK A01 T01180064  RH  070%=      5-min Rain = 0
KWE2 251451Z 08007KT 12/06 A3027 RMK A01 T01180064  RH  069%=      5-min Rain = 0
KWE2 251452Z 07008KT 12/06 A3028 RMK A01 T01190064  RH  069%=      5-min Rain = 0
KWE2 251453Z 08006KT 12/06 A3028 RMK A01 T01190064  RH  069%=      5-min Rain = 0
KWE2 251454Z 08007KT 12/07 A3028 RMK A01 T01210066  RH  069%=      5-min Rain = 0
KWE2 251455Z 08006KT 12/07 A3028 RMK A01 T01230066  RH  068%=      5-min Rain = 0
KWE2 251456Z 09007KT 12/07 A3028 RMK A01 T01230065  RH  067%=      5-min Rain = 0
KWE2 251457Z 08006KT 12/06 A3028 RMK A01 T01220064  RH  067%=      5-min Rain = 0
KWE2 251458Z 07008KT 12/06 A3028 RMK A01 T01220063  RH  067%=      5-min Rain = 0
KWE2 251459Z 06009KT 12/06 A3028 RMK A01 T01210063  RH  067%=      5-min Rain = 0
KWE2 251500Z 08006KT 12/06 A3028 RMK A01 T01210062  RH  067%=      5-min Rain = 0
KWE2 251501Z 08007KT 12/06 A3028 RMK A01 T01210064  RH  068%=      5-min Rain = 0
KWE2 251502Z 07009KT 12/07 A3028 RMK A01 T01230065  RH  067%=      5-min Rain = 0
KWE2 251503Z 07010KT 12/06 A3028 RMK A01 T01230062  RH  066%=      5-min Rain = 0
KWE2 251504Z 08009KT 12/06 A3028 RMK A01 T01210062  RH  067%=      5-min Rain = 0
KWE2 251505Z 09009KT 12/06 A3028 RMK A01 T01210062  RH  067%=      5-min Rain = 0
KWE2 251506Z 08009KT 12/06 A3028 RMK A01 T01220063  RH  067%=      5-min Rain = 0
KWE2 251507Z 08009KT 12/06 A3028 RMK A01 T01230063  RH  067%=      5-min Rain = 0
KWE2 251508Z 08007KT 12/06 A3028 RMK A01 T01240064  RH  067%=      5-min Rain = 0
KWE2 251509Z 09008KT 13/07 A3028 RMK A01 T01260066  RH  067%=      5-min Rain = 0
KWE2 251510Z 09009KT 13/06 A3028 RMK A01 T01280064  RH  065%=      5-min Rain = 0
KWE2 251511Z 09007KT 13/07 A3028 RMK A01 T01270066  RH  066%=      5-min Rain = 0
KWE2 251512Z 08006KT 13/07 A3028 RMK A01 T01290067  RH  066%=      5-min Rain = 0
KWE2 251513Z 08007KT 13/07 A3028 RMK A01 T01310068  RH  065%=      5-min Rain = 0
KWE2 251514Z 08009KT 13/07 A3028 RMK A01 T01310066  RH  064%=      5-min Rain = 0
KWE2 251515Z 09011KT 13/07 A3028 RMK A01 T01310065  RH  064%=      5-min Rain = 0
KWE2 251516Z 07009KT 13/06 A3029 RMK A01 T01320064  RH  064%=      5-min Rain = 0
KWE2 251517Z 08011KT 13/06 A3029 RMK A01 T01330062  RH  062%=      5-min Rain = 0
KWE2 251518Z 08009KT 13/06 A3029 RMK A01 T01320063  RH  063%=      5-min Rain = 0
KWE2 251519Z 09008KT 13/06 A3029 RMK A01 T01340064  RH  063%=      5-min Rain = 0
KWE2 251520Z 08007KT 14/07 A3029 RMK A01 T01350067  RH  063%=      5-min Rain = 0
KWE2 251521Z 08009KT 14/07 A3029 RMK A01 T01380065  RH  062%=      5-min Rain = 0
KWE2 251522Z 08011KT 14/07 A3029 RMK A01 T01380065  RH  061%=      5-min Rain = 0
KWE2 251523Z 08008KT 14/06 A3029 RMK A01 T01370063  RH  061%=      5-min Rain = 0
KWE2 251524Z 09008KT 14/07 A3029 RMK A01 T01370065  RH  062%=      5-min Rain = 0
KWE2 251525Z 09010KT 14/07 A3029 RMK A01 T01380066  RH  061%=      5-min Rain = 0
KWE2 251526Z 09010KT 14/06 A3029 RMK A01 T01380062  RH  060%=      5-min Rain = 0
KWE2 251527Z 08009KT 14/06 A3029 RMK A01 T01370062  RH  061%=      5-min Rain = 0
KWE2 251528Z 08009KT 14/06 A3029 RMK A01 T01360062  RH  061%=      5-min Rain = 0
KWE2 251529Z 09010KT 14/06 A3029 RMK A01 T01360062  RH  061%=      5-min Rain = 0
KWE2 251530Z 09011KT 14/06 A3029 RMK A01 T01380064  RH  061%=      5-min Rain = 0
KWE2 251531Z 09011KT 14/06 A3029 RMK A01 T01400063  RH  060%=      5-min Rain = 0
KWE2 251532Z 09011KT 14/06 A3029 RMK A01 T01390062  RH  060%=      5-min Rain = 0
KWE2 251533Z 08008KT 14/06 A3029 RMK A01 T01400064  RH  060%=      5-min Rain = 0
KWE2 251534Z 09007KT 14/06 A3029 RMK A01 T01410063  RH  059%=      5-min Rain = 0
KWE2 251535Z 09009KT 14/06 A3029 RMK A01 T01430064  RH  059%=      5-min Rain = 0
KWE2 251536Z 09008KT 14/07 A3029 RMK A01 T01440065  RH  059%=      5-min Rain = 0
KWE2 251537Z 09011KT 15/07 A3029 RMK A01 T01460065  RH  058%=      5-min Rain = 0
KWE2 251538Z 09011KT 15/06 A3029 RMK A01 T01450061  RH  057%=      5-min Rain = 0
KWE2 251539Z 09009KT 14/06 A3029 RMK A01 T01440064  RH  059%=      5-min Rain = 0
KWE2 251540Z 08007KT 15/07 A3029 RMK A01 T01460066  RH  059%=      5-min Rain = 0
KWE2 251541Z 07008KT 15/07 A3029 RMK A01 T01480067  RH  058%=      5-min Rain = 0
KWE2 251542Z 08009KT 15/06 A3029 RMK A01 T01480064  RH  057%=      5-min Rain = 0
KWE2 251543Z 07010KT 15/06 A3029 RMK A01 T01470062  RH  057%=      5-min Rain = 0
KWE2 251544Z 07009KT 15/06 A3029 RMK A01 T01450063  RH  058%=      5-min Rain = 0
KWE2 251545Z 09011KT 15/06 A3029 RMK A01 T01450063  RH  058%=      5-min Rain = 0
KWE2 251546Z 07012KT 15/06 A3029 RMK A01 T01450062  RH  057%=      5-min Rain = 0
KWE2 251547Z 08010KT 14/06 A3029 RMK A01 T01440061  RH  057%=      5-min Rain = 0
KWE2 251548Z 08010KT 15/07 A303 RMK A01 T01470065  RH  058%=      5-min Rain = 0
KWE2 251549Z 08011KT 15/06 A303 RMK A01 T01490060  RH  055%=      5-min Rain = 0
KWE2 251550Z 08009KT 15/06 A303 RMK A01 T01480060  RH  055%=      5-min Rain = 0
KWE2 251551Z 08012KT 15/06 A303 RMK A01 T01480062  RH  056%=      5-min Rain = 0
KWE2 251552Z 09011KT 15/06 A303 RMK A01 T01500061  RH  056%=      5-min Rain = 0
KWE2 251553Z 09010G15KT 15/06 A303 RMK A01 T01500063  RH  056%=      5-min Rain = 0
KWE2 251554Z 08010KT 15/06 A303 RMK A01 T01500062  RH  056%=      5-min Rain = 0
KWE2 251555Z 08011KT 15/06 A303 RMK A01 T01500060  RH  055%=      5-min Rain = 0
KWE2 251556Z 08009KT 15/06 A303 RMK A01 T01490061  RH  056%=      5-min Rain = 0
KWE2 251557Z 07009KT 15/06 A303 RMK A01 T01510061  RH  055%=      5-min Rain = 0
KWE2 251558Z 08011KT 15/06 A303 RMK A01 T01500061  RH  055%=      5-min Rain = 0
KWE2 251559Z 08007KT 15/06 A303 RMK A01 T01500060  RH  055%=      5-min Rain = 0
KWE2 251600Z 09010KT 15/06 A303 RMK A01 T01490061  RH  055%=      5-min Rain = 0
KWE2 251601Z 09010KT 15/06 A303 RMK A01 T01520064  RH  056%=      5-min Rain = 0
KWE2 251602Z 09011KT 16/06 A303 RMK A01 T01550063  RH  054%=      5-min Rain = 0
KWE2 251603Z 09009KT 16/06 A303 RMK A01 T01550062  RH  054%=      5-min Rain = 0
KWE2 251604Z 09012KT 15/06 A303 RMK A01 T01540061  RH  054%=      5-min Rain = 0
KWE2 251605Z 09012KT 15/06 A303 RMK A01 T01530059  RH  053%=      5-min Rain = 0
KWE2 251606Z 09011KT 15/06 A303 RMK A01 T01530060  RH  054%=      5-min Rain = 0
KWE2 251607Z 08011KT 15/06 A303 RMK A01 T01540060  RH  054%=      5-min Rain = 0
KWE2 251608Z 10012KT 15/06 A303 RMK A01 T01540060  RH  053%=      5-min Rain = 0
KWE2 251609Z 10011KT 16/06 A303 RMK A01 T01560061  RH  053%=      5-min Rain = 0
KWE2 251610Z 08011KT 16/06 A303 RMK A01 T01560061  RH  053%=      5-min Rain = 0
KWE2 251611Z 10012KT 16/06 A303 RMK A01 T01570058  RH  052%=      5-min Rain = 0
KWE2 251612Z 10013KT 16/06 A303 RMK A01 T01570059  RH  052%=      5-min Rain = 0
KWE2 251613Z 09011KT 16/06 A303 RMK A01 T01580059  RH  052%=      5-min Rain = 0
KWE2 251614Z 09011KT 16/06 A303 RMK A01 T01590060  RH  052%=      5-min Rain = 0
KWE2 251615Z 09012KT 16/06 A303 RMK A01 T01600058  RH  051%=      5-min Rain = 0
KWE2 251616Z 09008KT 16/06 A303 RMK A01 T01580058  RH  051%=      5-min Rain = 0
KWE2 251617Z 09010G15KT 16/06 A303 RMK A01 T01590058  RH  051%=      5-min Rain = 0
KWE2 251618Z 08010KT 16/06 A303 RMK A01 T01600059  RH  051%=      5-min Rain = 0
KWE2 251619Z 09011KT 16/06 A3031 RMK A01 T01610061  RH  051%=      5-min Rain = 0
KWE2 251620Z 08010KT 16/06 A3031 RMK A01 T01620061  RH  051%=      5-min Rain = 0
KWE2 251621Z 09010KT 16/06 A3031 RMK A01 T01600059  RH  051%=      5-min Rain = 0
KWE2 251622Z 09013KT 16/06 A3031 RMK A01 T01600058  RH  051%=      5-min Rain = 0
KWE2 251623Z 09011KT 16/06 A3031 RMK A01 T01590058  RH  051%=      5-min Rain = 0
KWE2 251624Z 08011KT 16/06 A3031 RMK A01 T01570057  RH  051%=      5-min Rain = 0
KWE2 251625Z 09012KT 16/06 A3031 RMK A01 T01560056  RH  051%=      5-min Rain = 0
KWE2 251626Z 09012KT 16/06 A3031 RMK A01 T01560056  RH  051%=      5-min Rain = 0
KWE2 251627Z 11010KT 16/06 A3031 RMK A01 T01560061  RH  053%=      5-min Rain = 0
KWE2 251628Z 09009KT 16/06 A3031 RMK A01 T01610064  RH  053%=      5-min Rain = 0
KWE2 251629Z 09012KT 16/06 A3031 RMK A01 T01630059  RH  050%=      5-min Rain = 0
KWE2 251630Z 09011KT 16/06 A3031 RMK A01 T01600056  RH  050%=      5-min Rain = 0
KWE2 251631Z 09009KT 16/06 A3031 RMK A01 T01580059  RH  052%=      5-min Rain = 0
KWE2 251632Z 09010KT 16/06 A3031 RMK A01 T01590059  RH  051%=      5-min Rain = 0
KWE2 251633Z 09012KT 16/06 A3031 RMK A01 T01600060  RH  052%=      5-min Rain = 0
KWE2 251634Z 10011KT 16/06 A3031 RMK A01 T01600059  RH  051%=      5-min Rain = 0
KWE2 251635Z 09010KT 16/06 A3031 RMK A01 T01600059  RH  051%=      5-min Rain = 0
KWE2 251636Z 09012KT 16/06 A3031 RMK A01 T01610059  RH  051%=      5-min Rain = 0
KWE2 251637Z 09013KT 16/06 A303 RMK A01 T01620060  RH  051%=      5-min Rain = 0
KWE2 251638Z 09011KT 16/06 A3031 RMK A01 T01620060  RH  051%=      5-min Rain = 0
KWE2 251639Z 11010KT 16/06 A303 RMK A01 T01620062  RH  052%=      5-min Rain = 0
KWE2 251640Z 10011KT 16/06 A303 RMK A01 T01620060  RH  051%=      5-min Rain = 0
KWE2 251641Z 10012KT 16/06 A303 RMK A01 T01630060  RH  051%=      5-min Rain = 0
KWE2 251642Z 09011KT 17/06 A3031 RMK A01 T01650059  RH  050%=      5-min Rain = 0
KWE2 251643Z 09012KT 17/06 A3031 RMK A01 T01650059  RH  050%=      5-min Rain = 0
KWE2 251644Z 09009KT 16/06 A303 RMK A01 T01640059  RH  050%=      5-min Rain = 0
KWE2 251645Z 12008KT 17/06 A303 RMK A01 T01650062  RH  050%=      5-min Rain = 0
KWE2 251646Z 10008KT 17/06 A303 RMK A01 T01680062  RH  049%=      5-min Rain = 0
KWE2 251647Z 08012KT 17/06 A303 RMK A01 T01690063  RH  049%=      5-min Rain = 0
KWE2 251648Z 08009KT 17/06 A303 RMK A01 T01690059  RH  048%=      5-min Rain = 0
KWE2 251649Z 09012KT 17/06 A303 RMK A01 T01680060  RH  049%=      5-min Rain = 0
KWE2 251650Z 10010KT 17/06 A303 RMK A01 T01680059  RH  049%=      5-min Rain = 0
KWE2 251651Z 09008KT 17/06 A303 RMK A01 T01670061  RH  049%=      5-min Rain = 0
KWE2 251652Z 11008KT 17/06 A303 RMK A01 T01680064  RH  050%=      5-min Rain = 0
KWE2 251653Z 09009KT 17/06 A303 RMK A01 T01710064  RH  049%=      5-min Rain = 0
KWE2 251654Z 10009KT 17/06 A303 RMK A01 T01730063  RH  048%=      5-min Rain = 0
KWE2 251655Z 08007KT 17/06 A303 RMK A01 T01740061  RH  048%=      5-min Rain = 0
KWE2 251656Z 07007KT 17/06 A303 RMK A01 T01730060  RH  047%=      5-min Rain = 0
KWE2 251657Z 09010KT 17/06 A303 RMK A01 T01720060  RH  048%=      5-min Rain = 0
KWE2 251658Z 11011KT 17/06 A303 RMK A01 T01720058  RH  047%=      5-min Rain = 0
KWE2 251659Z 12011KT 17/06 A303 RMK A01 T01720056  RH  046%=      5-min Rain = 0
KWE2 251700Z 11010KT 17/06 A303 RMK A01 T01720059  RH  047%=      5-min Rain = 0
KWE2 251701Z 09008KT 18/06 A303 RMK A01 T01750059  RH  047%=      5-min Rain = 0
KWE2 251702Z 08008KT 18/06 A303 RMK A01 T01750058  RH  046%=      5-min Rain = 0
KWE2 251703Z 09009KT 18/06 A303 RMK A01 T01750058  RH  046%=      5-min Rain = 0
KWE2 251704Z 10011KT 18/06 A303 RMK A01 T01750058  RH  046%=      5-min Rain = 0
KWE2 251705Z 09010KT 17/06 A303 RMK A01 T01730056  RH  046%=      5-min Rain = 0
KWE2 251706Z 08009KT 17/06 A303 RMK A01 T01700055  RH  047%=      5-min Rain = 0
KWE2 251707Z 07011KT 17/06 A303 RMK A01 T01700055  RH  047%=      5-min Rain = 0
KWE2 251708Z 08008KT 17/06 A303 RMK A01 T01710055  RH  046%=      5-min Rain = 0
KWE2 251709Z 07008KT 17/06 A303 RMK A01 T01730057  RH  046%=      5-min Rain = 0
KWE2 251710Z 08007KT 17/06 A303 RMK A01 T01740059  RH  047%=      5-min Rain = 0
KWE2 251711Z 08010KT 18/06 A303 RMK A01 T01770058  RH  046%=      5-min Rain = 0
KWE2 251712Z 09009KT 18/06 A303 RMK A01 T01760057  RH  045%=      5-min Rain = 0
KWE2 251713Z 08008KT 18/06 A303 RMK A01 T01780056  RH  045%=      5-min Rain = 0
KWE2 251714Z 10009KT 18/05 A303 RMK A01 T01780054  RH  044%=      5-min Rain = 0
KWE2 251715Z 11009KT 18/06 A303 RMK A01 T01790055  RH  044%=      5-min Rain = 0
KWE2 251716Z 10010KT 18/06 A303 RMK A01 T01800055  RH  044%=      5-min Rain = 0
KWE2 251717Z 08010KT 18/06 A303 RMK A01 T01810056  RH  044%=      5-min Rain = 0
KWE2 251718Z 09008KT 18/06 A303 RMK A01 T01780055  RH  044%=      5-min Rain = 0
KWE2 251719Z 10009KT 18/06 A303 RMK A01 T01780058  RH  045%=      5-min Rain = 0
KWE2 251720Z 09009KT 18/06 A303 RMK A01 T01770058  RH  045%=      5-min Rain = 0
KWE2 251721Z 08007KT 18/06 A303 RMK A01 T01760055  RH  045%=      5-min Rain = 0
KWE2 251722Z 09010KT 18/06 A303 RMK A01 T01750056  RH  045%=      5-min Rain = 0
KWE2 251723Z 09010KT 18/06 A303 RMK A01 T01770056  RH  045%=      5-min Rain = 0
KWE2 251724Z 11011KT 18/06 A303 RMK A01 T01790057  RH  045%=      5-min Rain = 0
KWE2 251725Z 10009KT 18/06 A303 RMK A01 T01800057  RH  044%=      5-min Rain = 0
KWE2 251726Z 10006KT 18/06 A303 RMK A01 T01800055  RH  044%=      5-min Rain = 0
KWE2 251727Z 11009KT 18/06 A3029 RMK A01 T01790057  RH  045%=      5-min Rain = 0
KWE2 251728Z 11010KT 18/05 A303 RMK A01 T01820053  RH  043%=      5-min Rain = 0
KWE2 251729Z 09008KT 18/05 A3029 RMK A01 T01810053  RH  043%=      5-min Rain = 0
KWE2 251730Z 08008KT 18/05 A303 RMK A01 T01800054  RH  044%=      5-min Rain = 0
KWE2 251731Z 09008KT 18/06 A3029 RMK A01 T01820060  RH  045%=      5-min Rain = 0
KWE2 251732Z 09008KT 19/06 A3029 RMK A01 T01850057  RH  043%=      5-min Rain = 0
KWE2 251733Z 08008KT 18/05 A303 RMK A01 T01830053  RH  042%=      5-min Rain = 0
KWE2 251734Z 08009KT 18/06 A3029 RMK A01 T01820056  RH  043%=      5-min Rain = 0
KWE2 251735Z 09008KT 18/06 A3029 RMK A01 T01820056  RH  043%=      5-min Rain = 0
KWE2 251736Z 08009KT 18/06 A3029 RMK A01 T01800056  RH  044%=      5-min Rain = 0
KWE2 251737Z 08007KT 18/05 A3029 RMK A01 T01800054  RH  044%=      5-min Rain = 0
KWE2 251738Z 09010KT 18/06 A3029 RMK A01 T01800056  RH  044%=      5-min Rain = 0
KWE2 251739Z 09008KT 18/06 A3029 RMK A01 T01830058  RH  044%=      5-min Rain = 0
KWE2 251740Z 10008KT 18/06 A3029 RMK A01 T01840056  RH  043%=      5-min Rain = 0
KWE2 251741Z 09008KT 18/06 A3029 RMK A01 T01830057  RH  044%=      5-min Rain = 0
KWE2 251742Z 11010KT 19/06 A3029 RMK A01 T01860058  RH  043%=      5-min Rain = 0
KWE2 251743Z 11009KT 19/05 A3029 RMK A01 T01870054  RH  042%=      5-min Rain = 0
KWE2 251744Z 11009KT 19/05 A3029 RMK A01 T01860053  RH  042%=      5-min Rain = 0
KWE2 251745Z 10010KT 19/05 A3029 RMK A01 T01860053  RH  042%=      5-min Rain = 0
KWE2 251746Z 11009KT 19/05 A3029 RMK A01 T01850050  RH  041%=      5-min Rain = 0
KWE2 251747Z 10008KT 18/05 A3029 RMK A01 T01830052  RH  042%=      5-min Rain = 0
KWE2 251748Z 09007KT 19/06 A3029 RMK A01 T01850056  RH  043%=      5-min Rain = 0
KWE2 251749Z 09008KT 19/06 A3029 RMK A01 T01850058  RH  043%=      5-min Rain = 0
KWE2 251750Z 10009KT 19/06 A3029 RMK A01 T01870059  RH  043%=      5-min Rain = 0
KWE2 251751Z 11012KT 19/06 A3029 RMK A01 T01890056  RH  042%=      5-min Rain = 0
KWE2 251752Z 12011KT 19/06 A3029 RMK A01 T01890056  RH  042%=      5-min Rain = 0
KWE2 251753Z 12008KT 19/05 A3029 RMK A01 T01890054  RH  041%=      5-min Rain = 0
KWE2 251754Z 10011KT 19/06 A3029 RMK A01 T01890057  RH  042%=      5-min Rain = 0
KWE2 251755Z 11010KT 19/05 A3029 RMK A01 T01890053  RH  041%=      5-min Rain = 0
KWE2 251756Z 12008KT 19/05 A3029 RMK A01 T01870053  RH  041%=      5-min Rain = 0
KWE2 251757Z 13010KT 19/05 A3029 RMK A01 T01870053  RH  041%=      5-min Rain = 0
KWE2 251758Z 13013KT 19/05 A3029 RMK A01 T01900053  RH  041%=      5-min Rain = 0
KWE2 251759Z 12010KT 19/05 A3029 RMK A01 T01910052  RH  040%=      5-min Rain = 0
KWE2 251800Z 11009KT 19/05 A3029 RMK A01 T01900052  RH  040%=      5-min Rain = 0
KWE2 251801Z 11011KT 19/05 A3029 RMK A01 T01890053  RH  041%=      5-min Rain = 0
KWE2 251802Z 11010KT 19/05 A3029 RMK A01 T01880052  RH  041%=      5-min Rain = 0
KWE2 251803Z 12010KT 19/05 A3029 RMK A01 T01890053  RH  041%=      5-min Rain = 0
KWE2 251804Z 12011KT 19/05 A3029 RMK A01 T01880053  RH  041%=      5-min Rain = 0
KWE2 251805Z 11013KT 19/05 A3029 RMK A01 T01890054  RH  041%=      5-min Rain = 0
KWE2 251806Z 13011KT 19/05 A3029 RMK A01 T01900053  RH  040%=      5-min Rain = 0
KWE2 251807Z 14009KT 19/05 A3029 RMK A01 T01900051  RH  040%=      5-min Rain = 0
KWE2 251808Z 13009KT 19/05 A3029 RMK A01 T01900050  RH  040%=      5-min Rain = 0
KWE2 251809Z 13009G14KT 19/05 A3029 RMK A01 T01890052  RH  040%=      5-min Rain = 0
KWE2 251810Z 12012KT 19/05 A3029 RMK A01 T01910053  RH  040%=      5-min Rain = 0
KWE2 251811Z 12010KT 19/05 A3029 RMK A01 T01930051  RH  039%=      5-min Rain = 0
KWE2 251812Z 12009KT 19/05 A3029 RMK A01 T01910052  RH  040%=      5-min Rain = 0
KWE2 251813Z 14010KT 19/05 A3029 RMK A01 T01920050  RH  039%=      5-min Rain = 0
KWE2 251814Z 14009KT 19/05 A3029 RMK A01 T01940050  RH  039%=      5-min Rain = 0
KWE2 251815Z 13007KT 20/05 A3029 RMK A01 T01950050  RH  039%=      5-min Rain = 0
KWE2 251816Z 12011KT 19/05 A3029 RMK A01 T01930052  RH  040%=      5-min Rain = 0
KWE2 251817Z 11011KT 20/05 A3029 RMK A01 T01950054  RH  040%=      5-min Rain = 0
KWE2 251818Z 10011KT 19/05 A3029 RMK A01 T01940051  RH  039%=      5-min Rain = 0
KWE2 251819Z 10009KT 19/05 A3029 RMK A01 T01890051  RH  040%=      5-min Rain = 0
KWE2 251820Z 11008KT 19/05 A3029 RMK A01 T01880052  RH  041%=      5-min Rain = 0
KWE2 251821Z 12008KT 19/05 A3029 RMK A01 T01860052  RH  041%=      5-min Rain = 0
KWE2 251822Z 10010KT 19/05 A3029 RMK A01 T01880052  RH  041%=      5-min Rain = 0
KWE2 251823Z 11007KT 19/05 A3029 RMK A01 T01900051  RH  040%=      5-min Rain = 0
KWE2 251824Z 11007KT 19/05 A3029 RMK A01 T01890049  RH  039%=      5-min Rain = 0
KWE2 251825Z 11009KT 19/05 A3029 RMK A01 T01880050  RH  040%=      5-min Rain = 0
KWE2 251826Z 12009KT 19/05 A3029 RMK A01 T01890050  RH  040%=      5-min Rain = 0
KWE2 251827Z 14009KT 19/05 A3029 RMK A01 T01930049  RH  039%=      5-min Rain = 0
KWE2 251828Z 14010KT 19/05 A3029 RMK A01 T01940050  RH  039%=      5-min Rain = 0
KWE2 251829Z 12009KT 20/05 A3029 RMK A01 T01960051  RH  039%=      5-min Rain = 0
KWE2 251830Z 15006KT 19/05 A3029 RMK A01 T01940049  RH  038%=      5-min Rain = 0
KWE2 251831Z 13006KT 19/05 A3029 RMK A01 T01940049  RH  038%=      5-min Rain = 0
KWE2 251832Z 14008KT 20/05 A3029 RMK A01 T01950050  RH  038%=      5-min Rain = 0
KWE2 251833Z 13006KT 20/05 A3029 RMK A01 T01970048  RH  038%=      5-min Rain = 0
KWE2 251834Z 09009KT 20/05 A3029 RMK A01 T01970052  RH  039%=      5-min Rain = 0
KWE2 251835Z 09008KT 20/05 A3029 RMK A01 T01960054  RH  039%=      5-min Rain = 0
KWE2 251836Z 09008KT 20/06 A3029 RMK A01 T01970056  RH  040%=      5-min Rain = 0
KWE2 251837Z 11008KT 20/06 A3029 RMK A01 T01980055  RH  039%=      5-min Rain = 0
KWE2 251838Z 12008KT 20/05 A3029 RMK A01 T01980052  RH  038%=      5-min Rain = 0
KWE2 251839Z 12009KT 20/05 A3028 RMK A01 T01990051  RH  038%=      5-min Rain = 0
KWE2 251840Z 13008KT 20/05 A3028 RMK A01 T02000049  RH  037%=      5-min Rain = 0
KWE2 251841Z 11005KT 20/05 A3029 RMK A01 T02000051  RH  038%=      5-min Rain = 0
KWE2 251842Z 10009KT 20/05 A3028 RMK A01 T01990053  RH  038%=      5-min Rain = 0
KWE2 251843Z 08005KT 20/05 A3028 RMK A01 T01990052  RH  038%=      5-min Rain = 0
KWE2 251844Z 10005KT 20/05 A3028 RMK A01 T01970051  RH  038%=      5-min Rain = 0
KWE2 251845Z 09006KT 20/05 A3028 RMK A01 T01970053  RH  039%=      5-min Rain = 0
KWE2 251846Z 13006KT 20/06 A3028 RMK A01 T01970055  RH  039%=      5-min Rain = 0
KWE2 251847Z 14008KT 20/05 A3028 RMK A01 T01980054  RH  039%=      5-min Rain = 0
KWE2 251848Z 12006KT 20/05 A3028 RMK A01 T01980052  RH  038%=      5-min Rain = 0
KWE2 251849Z 10005KT 20/06 A3028 RMK A01 T01970056  RH  040%=      5-min Rain = 0
KWE2 251850Z 09005KT 20/06 A3028 RMK A01 T01970059  RH  040%=      5-min Rain = 0
KWE2 251851Z 08006KT 20/06 A3028 RMK A01 T01990060  RH  040%=      5-min Rain = 0
KWE2 251852Z 08008KT 20/06 A3028 RMK A01 T02000057  RH  039%=      5-min Rain = 0
KWE2 251853Z 09007KT 20/06 A3028 RMK A01 T02000060  RH  040%=      5-min Rain = 0
KWE2 251854Z 08008KT 20/06 A3028 RMK A01 T02020057  RH  039%=      5-min Rain = 0
KWE2 251855Z 08006KT 20/05 A3028 RMK A01 T02020052  RH  037%=      5-min Rain = 0
KWE2 251856Z 08004KT 20/05 A3028 RMK A01 T01990054  RH  039%=      5-min Rain = 0
KWE2 251857Z 09008KT 20/05 A3028 RMK A01 T01990053  RH  038%=      5-min Rain = 0
KWE2 251858Z 10007KT 20/06 A3028 RMK A01 T01980055  RH  039%=      5-min Rain = 0
KWE2 251859Z 10006KT 20/06 A3028 RMK A01 T01980056  RH  040%=      5-min Rain = 0
KWE2 251900Z 12009KT 20/06 A3028 RMK A01 T01990057  RH  039%=      5-min Rain = 0
KWE2 251901Z 14006KT 20/06 A3028 RMK A01 T02020056  RH  038%=      5-min Rain = 0
KWE2 251902Z 15005KT 20/06 A3028 RMK A01 T02020056  RH  039%=      5-min Rain = 0
KWE2 251903Z 15006KT 20/06 A3028 RMK A01 T02020055  RH  038%=      5-min Rain = 0
KWE2 251904Z 13004KT 20/05 A3028 RMK A01 T02000054  RH  038%=      5-min Rain = 0
KWE2 251905Z 11003KT 20/05 A3028 RMK A01 T01990054  RH  039%=      5-min Rain = 0
KWE2 251906Z 10008KT 20/06 A3028 RMK A01 T01990057  RH  039%=      5-min Rain = 0
KWE2 251907Z 11010KT 20/06 A3028 RMK A01 T02000058  RH  039%=      5-min Rain = 0
KWE2 251908Z 11010KT 20/06 A3028 RMK A01 T02020057  RH  039%=      5-min Rain = 0
KWE2 251909Z 10009KT 20/05 A3028 RMK A01 T02020053  RH  038%=      5-min Rain = 0
KWE2 251910Z 10008KT 20/05 A3028 RMK A01 T02000052  RH  038%=      5-min Rain = 0
KWE2 251911Z 11006KT 20/06 A3028 RMK A01 T01990056  RH  039%=      5-min Rain = 0
KWE2 251912Z 15005KT 20/06 A3028 RMK A01 T01980057  RH  040%=      5-min Rain = 0
KWE2 251913Z 17004KT 20/06 A3027 RMK A01 T01980056  RH  039%=      5-min Rain = 0
KWE2 251914Z 13005KT 20/06 A3027 RMK A01 T01990056  RH  039%=      5-min Rain = 0
KWE2 251915Z 13006KT 20/06 A3027 RMK A01 T02000058  RH  039%=      5-min Rain = 0
KWE2 251916Z 11007KT 20/06 A3027 RMK A01 T02000061  RH  040%=      5-min Rain = 0
KWE2 251917Z 13010KT 20/06 A3027 RMK A01 T02010059  RH  040%=      5-min Rain = 0
KWE2 251918Z 12009KT 20/06 A3027 RMK A01 T02020057  RH  039%=      5-min Rain = 0
KWE2 251919Z 11007KT 20/06 A3027 RMK A01 T02010058  RH  039%=      5-min Rain = 0
KWE2 251920Z 15006KT 20/06 A3027 RMK A01 T02010058  RH  039%=      5-min Rain = 0
KWE2 251921Z 15003KT 20/06 A3027 RMK A01 T02040061  RH  039%=      5-min Rain = 0
KWE2 251922Z 14004KT 21/06 A3027 RMK A01 T02060057  RH  038%=      5-min Rain = 0
KWE2 251923Z 13004KT 21/05 A3027 RMK A01 T02070052  RH  036%=      5-min Rain = 0
KWE2 251924Z 09008KT 21/06 A3027 RMK A01 T02060059  RH  038%=      5-min Rain = 0
KWE2 251925Z 10009KT 21/06 A3027 RMK A01 T02070059  RH  038%=      5-min Rain = 0
KWE2 251926Z 11012KT 21/06 A3027 RMK A01 T02060058  RH  038%=      5-min Rain = 0
KWE2 251927Z 09007KT 20/06 A3027 RMK A01 T02040055  RH  038%=      5-min Rain = 0
KWE2 251928Z 08007KT 20/06 A3027 RMK A01 T02020057  RH  039%=      5-min Rain = 0
KWE2 251929Z 08007KT 20/06 A3027 RMK A01 T02020055  RH  038%=      5-min Rain = 0
KWE2 251930Z 07005KT 20/05 A3027 RMK A01 T02000052  RH  038%=      5-min Rain = 0
KWE2 251931Z 08004KT 20/05 A3027 RMK A01 T02000052  RH  038%=      5-min Rain = 0
KWE2 251932Z 05003KT 20/05 A3027 RMK A01 T01990052  RH  038%=      5-min Rain = 0
KWE2 251933Z 07003KT 20/05 A3027 RMK A01 T01980054  RH  039%=      5-min Rain = 0
KWE2 251934Z 09008KT 20/06 A3027 RMK A01 T02010060  RH  040%=      5-min Rain = 0
KWE2 251935Z 09007KT 20/05 A3027 RMK A01 T02040054  RH  037%=      5-min Rain = 0
KWE2 251936Z 07006KT 20/05 A3027 RMK A01 T02010050  RH  037%=      5-min Rain = 0
KWE2 251937Z 07005KT 20/06 A3027 RMK A01 T02000055  RH  039%=      5-min Rain = 0
KWE2 251938Z 09005KT 20/05 A3026 RMK A01 T02000051  RH  037%=      5-min Rain = 0
KWE2 251939Z 09004KT 20/06 A3026 RMK A01 T02010056  RH  039%=      5-min Rain = 0
KWE2 251940Z 04007KT 20/06 A3026 RMK A01 T02030056  RH  038%=      5-min Rain = 0
KWE2 251941Z 04004KT 20/05 A3026 RMK A01 T02040052  RH  037%=      5-min Rain = 0
KWE2 251942Z 08008KT 20/06 A3026 RMK A01 T02040056  RH  038%=      5-min Rain = 0
KWE2 251943Z 12007KT 21/06 A3026 RMK A01 T02050057  RH  038%=      5-min Rain = 0
KWE2 251944Z 13006KT 21/05 A3026 RMK A01 T02070054  RH  037%=      5-min Rain = 0
KWE2 251945Z 14007KT 21/05 A3026 RMK A01 T02070052  RH  036%=      5-min Rain = 0
KWE2 251946Z 13006KT 21/05 A3026 RMK A01 T02070051  RH  036%=      5-min Rain = 0
KWE2 251947Z 12004KT 21/05 A3026 RMK A01 T02060050  RH  036%=      5-min Rain = 0
KWE2 251948Z 11004KT 21/05 A3026 RMK A01 T02060053  RH  037%=      5-min Rain = 0
KWE2 251949Z 15004KT 21/05 A3026 RMK A01 T02060050  RH  036%=      5-min Rain = 0
KWE2 251950Z 17004KT 21/05 A3026 RMK A01 T02060048  RH  035%=      5-min Rain = 0
KWE2 251951Z 11004KT 21/05 A3026 RMK A01 T02060049  RH  036%=      5-min Rain = 0
KWE2 251952Z 09006KT 21/05 A3026 RMK A01 T02050046  RH  035%=      5-min Rain = 0
KWE2 251953Z 14006KT 21/05 A3026 RMK A01 T02050050  RH  036%=      5-min Rain = 0
KWE2 251954Z 13005KT 21/05 A3026 RMK A01 T02080047  RH  035%=      5-min Rain = 0
KWE2 251955Z 09002KT 21/05 A3026 RMK A01 T02080046  RH  035%=      5-min Rain = 0
KWE2 251956Z 07001KT 21/05 A3026 RMK A01 T02050045  RH  035%=      5-min Rain = 0
KWE2 251957Z 06002KT 21/05 A3026 RMK A01 T02050051  RH  036%=      5-min Rain = 0
KWE2 251958Z 14004KT 21/05 A3026 RMK A01 T02060053  RH  037%=      5-min Rain = 0
KWE2 251959Z 14004KT 21/05 A3026 RMK A01 T02080050  RH  036%=      5-min Rain = 0
KWE2 252000Z 13009KT 21/05 A3026 RMK A01 T02090052  RH  036%=      5-min Rain = 0
KWE2 252001Z 13008KT 21/05 A3026 RMK A01 T02100053  RH  036%=      5-min Rain = 0
KWE2 252002Z 12010KT 21/05 A3026 RMK A01 T02120054  RH  036%=      5-min Rain = 0
KWE2 252003Z 11008KT 21/05 A3026 RMK A01 T02120051  RH  035%=      5-min Rain = 0
KWE2 252004Z 12008KT 21/05 A3026 RMK A01 T02100050  RH  035%=      5-min Rain = 0
KWE2 252005Z 10007KT 21/05 A3026 RMK A01 T02090052  RH  036%=      5-min Rain = 0
KWE2 252006Z 12006KT 21/05 A3026 RMK A01 T02090054  RH  036%=      5-min Rain = 0
KWE2 252007Z 13004KT 21/05 A3026 RMK A01 T02100051  RH  035%=      5-min Rain = 0
KWE2 252008Z 18003KT 21/05 A3026 RMK A01 T02100049  RH  035%=      5-min Rain = 0
KWE2 252009Z 17005KT 21/05 A3026 RMK A01 T02090048  RH  035%=      5-min Rain = 0
KWE2 252010Z 16006KT 21/05 A3026 RMK A01 T02090049  RH  035%=      5-min Rain = 0
KWE2 252011Z 15010KT 21/05 A3025 RMK A01 T02090048  RH  035%=      5-min Rain = 0
KWE2 252012Z 16007KT 21/04 A3025 RMK A01 T02100044  RH  034%=      5-min Rain = 0
KWE2 252013Z 16004KT 21/04 A3025 RMK A01 T02090040  RH  033%=      5-min Rain = 0
KWE2 252014Z 16003KT 21/04 A3025 RMK A01 T02060041  RH  034%=      5-min Rain = 0
KWE2 252015Z 15003KT 21/04 A3025 RMK A01 T02060041  RH  034%=      5-min Rain = 0
KWE2 252016Z 10005KT 21/05 A3025 RMK A01 T02070047  RH  035%=      5-min Rain = 0
KWE2 252017Z 10008KT 21/06 A3025 RMK A01 T02090055  RH  037%=      5-min Rain = 0
KWE2 252018Z 09007KT 21/05 A3025 RMK A01 T02100054  RH  036%=      5-min Rain = 0
KWE2 252019Z 09006KT 21/05 A3025 RMK A01 T02090050  RH  035%=      5-min Rain = 0
KWE2 252020Z 07005KT 21/05 A3025 RMK A01 T02080052  RH  036%=      5-min Rain = 0
KWE2 252021Z 07006KT 21/06 A3025 RMK A01 T02100056  RH  037%=      5-min Rain = 0
KWE2 252022Z 05008KT 21/05 A3025 RMK A01 T02130053  RH  035%=      5-min Rain = 0
KWE2 252023Z 05008KT 22/05 A3025 RMK A01 T02150050  RH  034%=      5-min Rain = 0
KWE2 252024Z 08008KT 21/05 A3025 RMK A01 T02130048  RH  034%=      5-min Rain = 0
KWE2 252025Z 08008KT 21/05 A3025 RMK A01 T02120046  RH  034%=      5-min Rain = 0
KWE2 252026Z 07005KT 21/05 A3025 RMK A01 T02110045  RH  034%=      5-min Rain = 0
KWE2 252027Z 07006KT 21/05 A3025 RMK A01 T02100046  RH  034%=      5-min Rain = 0
KWE2 252028Z 05004KT 21/04 A3025 RMK A01 T02120044  RH  033%=      5-min Rain = 0
KWE2 252029Z 05006KT 21/05 A3025 RMK A01 T02130054  RH  035%=      5-min Rain = 0
KWE2 252030Z 07005KT 22/05 A3025 RMK A01 T02160054  RH  035%=      5-min Rain = 0
KWE2 252031Z 06007KT 22/05 A3025 RMK A01 T02170050  RH  034%=      5-min Rain = 0
KWE2 252032Z 07007KT 22/05 A3025 RMK A01 T02160048  RH  033%=      5-min Rain = 0
KWE2 252033Z 07005KT 21/05 A3025 RMK A01 T02140051  RH  034%=      5-min Rain = 0
KWE2 252034Z 08004KT 21/04 A3025 RMK A01 T02140044  RH  033%=      5-min Rain = 0
KWE2 252035Z 07003KT 21/05 A3024 RMK A01 T02130049  RH  034%=      5-min Rain = 0
KWE2 252036Z 07003KT 21/05 A3024 RMK A01 T02120046  RH  034%=      5-min Rain = 0
KWE2 252037Z 08006KT 21/05 A3024 RMK A01 T02110049  RH  035%=      5-min Rain = 0
KWE2 252038Z 09005KT 21/05 A3024 RMK A01 T02090052  RH  036%=      5-min Rain = 0
KWE2 252039Z 11007KT 21/06 A3024 RMK A01 T02070056  RH  037%=      5-min Rain = 0
KWE2 252040Z 13012KT 21/06 A3024 RMK A01 T02090057  RH  037%=      5-min Rain = 0
KWE2 252041Z 14012KT 21/05 A3024 RMK A01 T02120054  RH  036%=      5-min Rain = 0
KWE2 252042Z 13013KT 21/05 A3024 RMK A01 T02140054  RH  035%=      5-min Rain = 0
KWE2 252043Z 13010KT 21/05 A3024 RMK A01 T02140054  RH  035%=      5-min Rain = 0
KWE2 252044Z 12008KT 21/05 A3024 RMK A01 T02140054  RH  035%=      5-min Rain = 0
KWE2 252045Z 11009KT 21/05 A3024 RMK A01 T02130054  RH  035%=      5-min Rain = 0
KWE2 252046Z 12006KT 21/05 A3024 RMK A01 T02110052  RH  035%=      5-min Rain = 0
KWE2 252047Z 12002KT 21/05 A3024 RMK A01 T02080052  RH  036%=      5-min Rain = 0
KWE2 252048Z 12007KT 21/06 A3024 RMK A01 T02080058  RH  037%=      5-min Rain = 0
KWE2 252049Z 12007KT 21/05 A3024 RMK A01 T02100053  RH  036%=      5-min Rain = 0
KWE2 252050Z 14006KT 21/05 A3024 RMK A01 T02110050  RH  035%=      5-min Rain = 0
KWE2 252051Z 15003KT 21/05 A3024 RMK A01 T02120047  RH  034%=      5-min Rain = 0
KWE2 252052Z 11001KT 21/05 A3024 RMK A01 T02120045  RH  034%=      5-min Rain = 0
KWE2 252053Z 14000KT 21/05 A3024 RMK A01 T02110048  RH  034%=      5-min Rain = 0
KWE2 252054Z 18002KT 21/05 A3024 RMK A01 T02130054  RH  035%=      5-min Rain = 0
KWE2 252055Z 14007KT 22/05 A3024 RMK A01 T02150053  RH  035%=      5-min Rain = 0
KWE2 252056Z 13007KT 22/06 A3024 RMK A01 T02160055  RH  035%=      5-min Rain = 0
KWE2 252057Z 14007KT 21/06 A3024 RMK A01 T02140058  RH  036%=      5-min Rain = 0
KWE2 252058Z 12008KT 21/06 A3024 RMK A01 T02140059  RH  036%=      5-min Rain = 0
KWE2 252059Z 09010KT 22/06 A3024 RMK A01 T02150060  RH  036%=      5-min Rain = 0
KWE2 252100Z 09007KT 22/06 A3024 RMK A01 T02160057  RH  036%=      5-min Rain = 0
KWE2 252101Z 09009KT 22/06 A3023 RMK A01 T02160056  RH  035%=      5-min Rain = 0
KWE2 252102Z 09007KT 21/06 A3023 RMK A01 T02140055  RH  035%=      5-min Rain = 0
KWE2 252103Z 08006KT 22/06 A3023 RMK A01 T02150060  RH  037%=      5-min Rain = 0
KWE2 252104Z 07007KT 22/05 A3023 RMK A01 T02160054  RH  035%=      5-min Rain = 0
KWE2 252105Z 09009KT 22/06 A3023 RMK A01 T02150056  RH  035%=      5-min Rain = 0
KWE2 252106Z 07007KT 22/06 A3023 RMK A01 T02150055  RH  035%=      5-min Rain = 0
KWE2 252107Z 08006KT 21/05 A3023 RMK A01 T02140054  RH  035%=      5-min Rain = 0
KWE2 252108Z 07006KT 21/06 A3023 RMK A01 T02140056  RH  036%=      5-min Rain = 0
KWE2 252109Z 05007KT 21/06 A3023 RMK A01 T02140055  RH  035%=      5-min Rain = 0
KWE2 252110Z 04006KT 21/06 A3023 RMK A01 T02120057  RH  036%=      5-min Rain = 0
KWE2 252111Z 05004KT 21/06 A3023 RMK A01 T02120061  RH  038%=      5-min Rain = 0
KWE2 252112Z 08003KT 21/06 A3023 RMK A01 T02140058  RH  036%=      5-min Rain = 0
KWE2 252113Z 10005KT 22/06 A3023 RMK A01 T02150057  RH  036%=      5-min Rain = 0
KWE2 252114Z 13007KT 21/06 A3023 RMK A01 T02140056  RH  036%=      5-min Rain = 0
KWE2 252115Z 12006KT 22/05 A3023 RMK A01 T02150054  RH  035%=      5-min Rain = 0
KWE2 252116Z 11007KT 22/06 A3023 RMK A01 T02160058  RH  036%=      5-min Rain = 0
KWE2 252117Z 12008KT 22/06 A3023 RMK A01 T02160057  RH  035%=      5-min Rain = 0
KWE2 252118Z 13008KT 22/06 A3023 RMK A01 T02180056  RH  035%=      5-min Rain = 0
KWE2 252119Z 11009KT 22/06 A3023 RMK A01 T02190055  RH  034%=      5-min Rain = 0
KWE2 252120Z 11006KT 22/05 A3023 RMK A01 T02180054  RH  034%=      5-min Rain = 0
KWE2 252121Z 11006KT 22/06 A3023 RMK A01 T02160057  RH  036%=      5-min Rain = 0
KWE2 252122Z 12011KT 22/06 A3023 RMK A01 T02190056  RH  034%=      5-min Rain = 0
KWE2 252123Z 10009KT 22/05 A3023 RMK A01 T02210054  RH  034%=      5-min Rain = 0
KWE2 252124Z 10007KT 22/05 A3023 RMK A01 T02190048  RH  033%=      5-min Rain = 0
KWE2 252125Z 13008KT 22/05 A3023 RMK A01 T02150051  RH  034%=      5-min Rain = 0
KWE2 252126Z 14010KT 22/05 A3023 RMK A01 T02160051  RH  034%=      5-min Rain = 0
KWE2 252127Z 14010KT 22/05 A3023 RMK A01 T02170051  RH  034%=      5-min Rain = 0
KWE2 252128Z 12007KT 22/05 A3023 RMK A01 T02180049  RH  033%=      5-min Rain = 0
KWE2 252129Z 16004KT 22/05 A3023 RMK A01 T02160048  RH  033%=      5-min Rain = 0
KWE2 252130Z 16005KT 22/05 A3023 RMK A01 T02160049  RH  034%=      5-min Rain = 0
KWE2 252131Z 10006KT 22/05 A3023 RMK A01 T02160049  RH  034%=      5-min Rain = 0
KWE2 252132Z 09006KT 21/05 A3023 RMK A01 T02140050  RH  034%=      5-min Rain = 0
KWE2 252133Z 11010KT 21/05 A3023 RMK A01 T02140053  RH  035%=      5-min Rain = 0
KWE2 252134Z 12008KT 22/05 A3023 RMK A01 T02150049  RH  034%=      5-min Rain = 0
KWE2 252135Z 11003KT 22/05 A3023 RMK A01 T02150052  RH  035%=      5-min Rain = 0
KWE2 252136Z 10001KT 22/05 A3023 RMK A01 T02160050  RH  034%=      5-min Rain = 0
KWE2 252137Z 08002KT 22/05 A3023 RMK A01 T02160048  RH  033%=      5-min Rain = 0
KWE2 252138Z 07007KT 22/05 A3023 RMK A01 T02160052  RH  034%=      5-min Rain = 0
KWE2 252139Z 08007KT 22/05 A3023 RMK A01 T02150053  RH  035%=      5-min Rain = 0
KWE2 252140Z 09004KT 21/06 A3023 RMK A01 T02140055  RH  036%=      5-min Rain = 0
KWE2 252141Z 12007KT 21/06 A3023 RMK A01 T02130060  RH  037%=      5-min Rain = 0
KWE2 252142Z 12010KT 22/05 A3023 RMK A01 T02150053  RH  035%=      5-min Rain = 0
KWE2 252143Z 12009KT 21/05 A3023 RMK A01 T02140054  RH  035%=      5-min Rain = 0
KWE2 252144Z 13007KT 22/05 A3023 RMK A01 T02150053  RH  035%=      5-min Rain = 0
KWE2 252145Z 14008KT 22/05 A3023 RMK A01 T02160052  RH  034%=      5-min Rain = 0
KWE2 252146Z 17007KT 22/05 A3023 RMK A01 T02170049  RH  033%=      5-min Rain = 0
KWE2 252147Z 16009KT 22/05 A3023 RMK A01 T02170051  RH  034%=      5-min Rain = 0
KWE2 252148Z 17006KT 22/05 A3023 RMK A01 T02160048  RH  033%=      5-min Rain = 0
KWE2 252149Z 16004KT 22/05 A3023 RMK A01 T02150051  RH  034%=      5-min Rain = 0
KWE2 252150Z 09008KT 22/06 A3023 RMK A01 T02150055  RH  035%=      5-min Rain = 0
KWE2 252151Z 08010KT 22/05 A3023 RMK A01 T02150049  RH  034%=      5-min Rain = 0
KWE2 252152Z 07008KT 21/05 A3023 RMK A01 T02130046  RH  034%=      5-min Rain = 0
KWE2 252153Z 07006KT 21/05 A3023 RMK A01 T02110047  RH  034%=      5-min Rain = 0
KWE2 252154Z 10006KT 21/05 A3023 RMK A01 T02100051  RH  035%=      5-min Rain = 0
KWE2 252155Z 10002KT 21/05 A3023 RMK A01 T02110047  RH  034%=      5-min Rain = 0
KWE2 252156Z 08002KT 21/05 A3023 RMK A01 T02120050  RH  035%=      5-min Rain = 0
KWE2 252157Z 10004KT 21/05 A3023 RMK A01 T02130049  RH  034%=      5-min Rain = 0
KWE2 252158Z 14008KT 21/05 A3023 RMK A01 T02140052  RH  035%=      5-min Rain = 0
KWE2 252159Z 16009KT 22/05 A3023 RMK A01 T02170047  RH  033%=      5-min Rain = 0
KWE2 252200Z 15007KT 22/04 A3023 RMK A01 T02170044  RH  032%=      5-min Rain = 0
KWE2 252201Z 13007KT 22/05 A3023 RMK A01 T02170048  RH  033%=      5-min Rain = 0
KWE2 252202Z 11008KT 22/05 A3023 RMK A01 T02180050  RH  033%=      5-min Rain = 0
KWE2 252203Z 09009KT 22/06 A3023 RMK A01 T02190055  RH  034%=      5-min Rain = 0
KWE2 252204Z 09007KT 22/05 A3023 RMK A01 T02170054  RH  034%=      5-min Rain = 0
KWE2 252205Z 09008KT 22/05 A3023 RMK A01 T02150052  RH  035%=      5-min Rain = 0
KWE2 252206Z 10007KT 22/05 A3023 RMK A01 T02150053  RH  035%=      5-min Rain = 0
KWE2 252207Z 10006KT 21/05 A3023 RMK A01 T02140051  RH  034%=      5-min Rain = 0
KWE2 252208Z 11008KT 21/05 A3023 RMK A01 T02130052  RH  035%=      5-min Rain = 0
KWE2 252209Z 12007KT 21/05 A3023 RMK A01 T02130053  RH  035%=      5-min Rain = 0
KWE2 252210Z 13006KT 21/05 A3023 RMK A01 T02140049  RH  034%=      5-min Rain = 0
KWE2 252211Z 14004KT 21/05 A3023 RMK A01 T02140047  RH  034%=      5-min Rain = 0
KWE2 252212Z 14004KT 21/05 A3023 RMK A01 T02140050  RH  034%=      5-min Rain = 0
KWE2 252213Z 12004KT 22/05 A3023 RMK A01 T02150051  RH  034%=      5-min Rain = 0
KWE2 252214Z 17003KT 22/05 A3023 RMK A01 T02150048  RH  034%=      5-min Rain = 0
KWE2 252215Z 16003KT 22/05 A3023 RMK A01 T02150049  RH  034%=      5-min Rain = 0
KWE2 252216Z 15004KT 22/05 A3023 RMK A01 T02170050  RH  034%=      5-min Rain = 0
KWE2 252217Z 13006KT 22/05 A3023 RMK A01 T02180054  RH  034%=      5-min Rain = 0
KWE2 252218Z 14008KT 22/05 A3023 RMK A01 T02190054  RH  034%=      5-min Rain = 0
KWE2 252219Z 10010KT 22/05 A3022 RMK A01 T02200054  RH  034%=      5-min Rain = 0
KWE2 252220Z 11010KT 22/05 A3022 RMK A01 T02190053  RH  034%=      5-min Rain = 0
KWE2 252221Z 11010KT 22/05 A3022 RMK A01 T02180052  RH  034%=      5-min Rain = 0
KWE2 252222Z 13010KT 22/05 A3022 RMK A01 T02170052  RH  034%=      5-min Rain = 0
KWE2 252223Z 12009KT 22/05 A3022 RMK A01 T02170052  RH  034%=      5-min Rain = 0
KWE2 252224Z 12009KT 22/05 A3022 RMK A01 T02170049  RH  033%=      5-min Rain = 0
KWE2 252225Z 12008KT 22/05 A3022 RMK A01 T02160048  RH  033%=      5-min Rain = 0
KWE2 252226Z 14006KT 21/05 A3023 RMK A01 T02140050  RH  034%=      5-min Rain = 0
KWE2 252227Z 13006KT 21/05 A3023 RMK A01 T02140048  RH  034%=      5-min Rain = 0
KWE2 252228Z 11003KT 21/05 A3023 RMK A01 T02140048  RH  034%=      5-min Rain = 0
KWE2 252229Z 06004KT 21/05 A3023 RMK A01 T02140053  RH  035%=      5-min Rain = 0
KWE2 252230Z 08004KT 21/06 A3022 RMK A01 T02140055  RH  036%=      5-min Rain = 0
KWE2 252231Z 08005KT 21/05 A3022 RMK A01 T02140053  RH  035%=      5-min Rain = 0
KWE2 252232Z 09006KT 21/05 A3022 RMK A01 T02130052  RH  035%=      5-min Rain = 0
KWE2 252233Z 10004KT 21/05 A3022 RMK A01 T02120052  RH  035%=      5-min Rain = 0
KWE2 252234Z 10004KT 21/06 A3022 RMK A01 T02120057  RH  036%=      5-min Rain = 0
KWE2 252235Z 09011KT 21/05 A3022 RMK A01 T02140053  RH  035%=      5-min Rain = 0
KWE2 252236Z 07007KT 21/05 A3022 RMK A01 T02140048  RH  034%=      5-min Rain = 0
KWE2 252237Z 07006KT 21/05 A3022 RMK A01 T02120045  RH  034%=      5-min Rain = 0
KWE2 252238Z 09007KT 21/05 A3022 RMK A01 T02100051  RH  035%=      5-min Rain = 0
KWE2 252239Z 11008KT 21/06 A3022 RMK A01 T02110055  RH  036%=      5-min Rain = 0
KWE2 252240Z 12007KT 21/06 A3023 RMK A01 T02120055  RH  036%=      5-min Rain = 0
KWE2 252241Z 13010KT 21/06 A3023 RMK A01 T02130056  RH  036%=      5-min Rain = 0
KWE2 252242Z 15010KT 21/05 A3023 RMK A01 T02140054  RH  035%=      5-min Rain = 0
KWE2 252243Z 15010KT 21/05 A3023 RMK A01 T02140052  RH  035%=      5-min Rain = 0
KWE2 252244Z 15009KT 21/05 A3023 RMK A01 T02140051  RH  035%=      5-min Rain = 0
KWE2 252245Z 15007KT 21/05 A3023 RMK A01 T02130052  RH  035%=      5-min Rain = 0
KWE2 252246Z 16006KT 21/05 A3023 RMK A01 T02110053  RH  036%=      5-min Rain = 0
KWE2 252247Z 14006KT 21/05 A3023 RMK A01 T02100052  RH  036%=      5-min Rain = 0
KWE2 252248Z 12009KT 21/05 A3023 RMK A01 T02090053  RH  036%=      5-min Rain = 0
KWE2 252249Z 12011KT 21/05 A3023 RMK A01 T02080054  RH  036%=      5-min Rain = 0
KWE2 252250Z 13010KT 21/05 A3023 RMK A01 T02090054  RH  036%=      5-min Rain = 0
KWE2 252251Z 13009KT 21/05 A3023 RMK A01 T02100052  RH  036%=      5-min Rain = 0
KWE2 252252Z 13007KT 21/05 A3023 RMK A01 T02110054  RH  036%=      5-min Rain = 0
KWE2 252253Z 13008KT 21/06 A3023 RMK A01 T02110055  RH  036%=      5-min Rain = 0
KWE2 252254Z 14009KT 21/05 A3023 RMK A01 T02130054  RH  035%=      5-min Rain = 0
KWE2 252255Z 14008KT 21/05 A3023 RMK A01 T02130052  RH  035%=      5-min Rain = 0
KWE2 252256Z 14009KT 21/05 A3023 RMK A01 T02140052  RH  035%=      5-min Rain = 0
KWE2 252257Z 14010KT 21/05 A3023 RMK A01 T02140053  RH  035%=      5-min Rain = 0
KWE2 252258Z 13008KT 22/05 A3023 RMK A01 T02150051  RH  034%=      5-min Rain = 0
KWE2 252259Z 13005KT 21/05 A3023 RMK A01 T02140051  RH  034%=      5-min Rain = 0
KWE2 252300Z 12008KT 21/05 A3023 RMK A01 T02120053  RH  035%=      5-min Rain = 0
KWE2 252301Z 12007KT 21/05 A3023 RMK A01 T02110053  RH  035%=      5-min Rain = 0
KWE2 252302Z 13004KT 21/06 A3023 RMK A01 T02110056  RH  036%=      5-min Rain = 0
KWE2 252303Z 12005KT 21/06 A3023 RMK A01 T02110056  RH  036%=      5-min Rain = 0
KWE2 252304Z 13007KT 21/05 A3023 RMK A01 T02120054  RH  036%=      5-min Rain = 0
KWE2 252305Z 12009KT 21/06 A3023 RMK A01 T02120055  RH  036%=      5-min Rain = 0
KWE2 252306Z 13011KT 21/06 A3023 RMK A01 T02130056  RH  036%=      5-min Rain = 0
KWE2 252307Z 13011KT 22/05 A3023 RMK A01 T02150053  RH  035%=      5-min Rain = 0
KWE2 252308Z 12010KT 22/05 A3023 RMK A01 T02150052  RH  034%=      5-min Rain = 0
KWE2 252309Z 11009KT 21/05 A3023 RMK A01 T02130054  RH  035%=      5-min Rain = 0
KWE2 252310Z 10007KT 21/05 A3023 RMK A01 T02110053  RH  035%=      5-min Rain = 0
KWE2 252311Z 11007KT 21/06 A3023 RMK A01 T02100055  RH  036%=      5-min Rain = 0
KWE2 252312Z 14008KT 21/05 A3023 RMK A01 T02100054  RH  036%=      5-min Rain = 0
KWE2 252313Z 13008KT 21/05 A3023 RMK A01 T02130054  RH  036%=      5-min Rain = 0
KWE2 252314Z 11009KT 22/05 A3023 RMK A01 T02150053  RH  035%=      5-min Rain = 0
KWE2 252315Z 11010KT 21/05 A3023 RMK A01 T02120053  RH  035%=      5-min Rain = 0
KWE2 252316Z 11010KT 21/05 A3023 RMK A01 T02110054  RH  036%=      5-min Rain = 0
KWE2 252317Z 12011KT 21/05 A3023 RMK A01 T02100052  RH  036%=      5-min Rain = 0
KWE2 252318Z 11008KT 21/05 A3023 RMK A01 T02100051  RH  035%=      5-min Rain = 0
KWE2 252319Z 10007KT 21/05 A3023 RMK A01 T02090053  RH  036%=      5-min Rain = 0
KWE2 252320Z 10006KT 21/05 A3023 RMK A01 T02090054  RH  036%=      5-min Rain = 0
KWE2 252321Z 11004KT 21/05 A3023 RMK A01 T02080051  RH  036%=      5-min Rain = 0
KWE2 252322Z 11003KT 21/05 A3023 RMK A01 T02070052  RH  036%=      5-min Rain = 0
KWE2 252323Z 11008KT 21/06 A3023 RMK A01 T02080055  RH  037%=      5-min Rain = 0
KWE2 252324Z 12008KT 21/06 A3023 RMK A01 T02100055  RH  036%=      5-min Rain = 0
KWE2 252325Z 13010KT 21/05 A3023 RMK A01 T02110053  RH  036%=      5-min Rain = 0
KWE2 252326Z 13010KT 21/05 A3023 RMK A01 T02120051  RH  035%=      5-min Rain = 0
KWE2 252327Z 13008KT 21/05 A3023 RMK A01 T02120052  RH  035%=      5-min Rain = 0
KWE2 252328Z 13007KT 21/05 A3023 RMK A01 T02120050  RH  035%=      5-min Rain = 0
KWE2 252329Z 11007KT 21/05 A3023 RMK A01 T02110051  RH  035%=      5-min Rain = 0
KWE2 252330Z 11006KT 21/05 A3023 RMK A01 T02100052  RH  036%=      5-min Rain = 0
KWE2 252331Z 10006KT 21/05 A3023 RMK A01 T02100052  RH  036%=      5-min Rain = 0
KWE2 252332Z 09007KT 21/05 A3023 RMK A01 T02090053  RH  036%=      5-min Rain = 0
KWE2 252333Z 09009KT 21/05 A3023 RMK A01 T02080051  RH  036%=      5-min Rain = 0
KWE2 252334Z 10010KT 21/05 A3023 RMK A01 T02080050  RH  036%=      5-min Rain = 0
KWE2 252335Z 10009KT 21/05 A3023 RMK A01 T02070050  RH  036%=      5-min Rain = 0
KWE2 252336Z 10008KT 21/05 A3023 RMK A01 T02060050  RH  036%=      5-min Rain = 0
KWE2 252337Z 10007KT 21/05 A3023 RMK A01 T02060050  RH  036%=      5-min Rain = 0
KWE2 252338Z 09007KT 21/05 A3023 RMK A01 T02060051  RH  036%=      5-min Rain = 0
KWE2 252339Z 09007KT 21/05 A3023 RMK A01 T02050050  RH  036%=      5-min Rain = 0
KWE2 252340Z 10008KT 21/05 A3023 RMK A01 T02060051  RH  036%=      5-min Rain = 0
KWE2 252341Z 10007KT 21/05 A3023 RMK A01 T02050049  RH  036%=      5-min Rain = 0
KWE2 252342Z 10007KT 21/05 A3023 RMK A01 T02060054  RH  037%=      5-min Rain = 0
KWE2 252343Z 10008KT 21/05 A3023 RMK A01 T02060054  RH  037%=      5-min Rain = 0
KWE2 252344Z 09007KT 21/05 A3023 RMK A01 T02060054  RH  037%=      5-min Rain = 0
KWE2 252345Z 10007KT 21/06 A3023 RMK A01 T02060055  RH  037%=      5-min Rain = 0
KWE2 252346Z 11007KT 21/05 A3023 RMK A01 T02060054  RH  037%=      5-min Rain = 0
KWE2 252347Z 13007KT 21/06 A3023 RMK A01 T02060056  RH  038%=      5-min Rain = 0
KWE2 252348Z 13009KT 21/05 A3023 RMK A01 T02070052  RH  036%=      5-min Rain = 0
KWE2 252349Z 11010KT 21/06 A3023 RMK A01 T02080055  RH  037%=      5-min Rain = 0
KWE2 252350Z 11010KT 21/05 A3023 RMK A01 T02090054  RH  036%=      5-min Rain = 0
KWE2 252351Z 13008KT 21/05 A3023 RMK A01 T02070053  RH  036%=      5-min Rain = 0
KWE2 252352Z 12009KT 21/05 A3023 RMK A01 T02070051  RH  036%=      5-min Rain = 0
KWE2 252353Z 13008KT 21/05 A3023 RMK A01 T02070052  RH  036%=      5-min Rain = 0
KWE2 252354Z 13009KT 21/05 A3023 RMK A01 T02060052  RH  036%=      5-min Rain = 0
KWE2 252355Z 12008KT 21/05 A3023 RMK A01 T02060051  RH  036%=      5-min Rain = 0
KWE2 252356Z 12010KT 21/05 A3023 RMK A01 T02050053  RH  037%=      5-min Rain = 0
KWE2 252357Z 11011KT 21/05 A3023 RMK A01 T02050052  RH  037%=      5-min Rain = 0
KWE2 252358Z 11010KT 20/05 A3023 RMK A01 T02040052  RH  037%=      5-min Rain = 0
KWE2 252359Z 11010KT 20/05 A3023 RMK A01 T02030053  RH  037%=      5-min Rain = 0
KWE2 260000Z 11011KT 20/05 A3023 RMK A01 T02030053  RH  037%=      5-min Rain = 0
KWE2 260001Z 11010KT 20/05 A3023 RMK A01 T02020052  RH  037%=      5-min Rain = 0
KWE2 260002Z 11009KT 20/05 A3023 RMK A01 T02020052  RH  037%=      5-min Rain = 0
KWE2 260003Z 10008KT 20/05 A3023 RMK A01 T02020052  RH  037%=      5-min Rain = 0
KWE2 260004Z 10008KT 20/05 A3023 RMK A01 T02010053  RH  038%=      5-min Rain = 0
KWE2 260005Z 12008KT 20/05 A3023 RMK A01 T02010053  RH  038%=      5-min Rain = 0
KWE2 260006Z 12008KT 20/05 A3023 RMK A01 T02010051  RH  037%=      5-min Rain = 0
KWE2 260007Z 10006KT 20/05 A3023 RMK A01 T02010052  RH  038%=      5-min Rain = 0
KWE2 260008Z 09008KT 20/05 A3023 RMK A01 T02010053  RH  038%=      5-min Rain = 0
KWE2 260009Z 10008KT 20/05 A3023 RMK A01 T02010050  RH  037%=      5-min Rain = 0
KWE2 260010Z 10008KT 20/05 A3023 RMK A01 T02010051  RH  038%=      5-min Rain = 0
KWE2 260011Z 11011KT 20/05 A3023 RMK A01 T02010052  RH  038%=      5-min Rain = 0
KWE2 260012Z 10009KT 20/05 A3023 RMK A01 T02000050  RH  037%=      5-min Rain = 0
KWE2 260013Z 11009KT 20/05 A3023 RMK A01 T01990050  RH  038%=      5-min Rain = 0
KWE2 260014Z 10008KT 20/05 A3023 RMK A01 T01990051  RH  038%=      5-min Rain = 0
KWE2 260015Z 11008KT 20/05 A3023 RMK A01 T01990052  RH  038%=      5-min Rain = 0
KWE2 260016Z 11008KT 20/05 A3023 RMK A01 T01990051  RH  038%=      5-min Rain = 0
KWE2 260017Z 12007KT 20/05 A3023 RMK A01 T01990053  RH  038%=      5-min Rain = 0
KWE2 260018Z 12009KT 20/05 A3023 RMK A01 T01990051  RH  038%=      5-min Rain = 0
KWE2 260019Z 11009KT 20/05 A3023 RMK A01 T01990051  RH  038%=      5-min Rain = 0
KWE2 260020Z 11009KT 20/05 A3023 RMK A01 T01980052  RH  038%=      5-min Rain = 0
KWE2 260021Z 11009KT 20/05 A3023 RMK A01 T01980050  RH  038%=      5-min Rain = 0
KWE2 260022Z 11008KT 20/05 A3023 RMK A01 T01970049  RH  038%=      5-min Rain = 0
KWE2 260023Z 11007KT 20/05 A3023 RMK A01 T01970050  RH  038%=      5-min Rain = 0
KWE2 260024Z 11008KT 20/05 A3023 RMK A01 T01970051  RH  038%=      5-min Rain = 0
KWE2 260025Z 12008KT 20/05 A3023 RMK A01 T01970051  RH  038%=      5-min Rain = 0
KWE2 260026Z 12007KT 20/05 A3023 RMK A01 T01960049  RH  038%=      5-min Rain = 0
KWE2 260027Z 11007KT 20/05 A3023 RMK A01 T01960050  RH  038%=      5-min Rain = 0
KWE2 260028Z 11008KT 20/05 A3023 RMK A01 T01960051  RH  039%=      5-min Rain = 0
KWE2 260029Z 12009KT 20/05 A3023 RMK A01 T01950052  RH  039%=      5-min Rain = 0
KWE2 260030Z 13007KT 19/05 A3023 RMK A01 T01940052  RH  039%=      5-min Rain = 0
KWE2 260031Z 13007KT 19/05 A3023 RMK A01 T01940053  RH  040%=      5-min Rain = 0
KWE2 260032Z 13007KT 19/05 A3023 RMK A01 T01940052  RH  039%=      5-min Rain = 0
KWE2 260033Z 13006KT 19/05 A3023 RMK A01 T01930050  RH  039%=      5-min Rain = 0
KWE2 260034Z 12006KT 19/05 A3023 RMK A01 T01930052  RH  040%=      5-min Rain = 0
KWE2 260035Z 12006KT 19/06 A3023 RMK A01 T01920055  RH  041%=      5-min Rain = 0
KWE2 260036Z 13006KT 19/05 A3023 RMK A01 T01900054  RH  041%=      5-min Rain = 0
KWE2 260037Z 12006KT 19/05 A3023 RMK A01 T01900052  RH  040%=      5-min Rain = 0
KWE2 260038Z 12007KT 19/05 A3023 RMK A01 T01890053  RH  041%=      5-min Rain = 0
KWE2 260039Z 12006KT 19/05 A3023 RMK A01 T01880054  RH  041%=      5-min Rain = 0
KWE2 260040Z 12006KT 19/05 A3023 RMK A01 T01870053  RH  041%=      5-min Rain = 0
KWE2 260041Z 12007KT 19/05 A3023 RMK A01 T01870053  RH  041%=      5-min Rain = 0
KWE2 260042Z 12007KT 19/05 A3023 RMK A01 T01860052  RH  041%=      5-min Rain = 0
KWE2 260043Z 12008KT 19/05 A3023 RMK A01 T01860051  RH  041%=      5-min Rain = 0
KWE2 260044Z 12008KT 19/05 A3023 RMK A01 T01850051  RH  041%=      5-min Rain = 0
KWE2 260045Z 13008KT 19/05 A3023 RMK A01 T01850051  RH  041%=      5-min Rain = 0
KWE2 260046Z 12008KT 19/05 A3023 RMK A01 T01850051  RH  041%=      5-min Rain = 0
KWE2 260047Z 12007KT 18/05 A3023 RMK A01 T01840051  RH  041%=      5-min Rain = 0
KWE2 260048Z 12008KT 18/05 A3023 RMK A01 T01840053  RH  042%=      5-min Rain = 0
KWE2 260049Z 12007KT 18/05 A3023 RMK A01 T01820054  RH  043%=      5-min Rain = 0
KWE2 260050Z 12007KT 18/05 A3023 RMK A01 T01800054  RH  043%=      5-min Rain = 0
KWE2 260051Z 12007KT 18/05 A3024 RMK A01 T01800054  RH  044%=      5-min Rain = 0
KWE2 260052Z 12007KT 18/05 A3024 RMK A01 T01790054  RH  044%=      5-min Rain = 0
KWE2 260053Z 12007KT 18/05 A3024 RMK A01 T01780054  RH  044%=      5-min Rain = 0
KWE2 260054Z 11008KT 18/05 A3024 RMK A01 T01770054  RH  044%=      5-min Rain = 0
KWE2 260055Z 11007KT 18/06 A3024 RMK A01 T01770055  RH  045%=      5-min Rain = 0
KWE2 260056Z 11007KT 18/06 A3024 RMK A01 T01750055  RH  045%=      5-min Rain = 0
KWE2 260057Z 11007KT 17/05 A3024 RMK A01 T01730054  RH  046%=      5-min Rain = 0
KWE2 260058Z 12008KT 17/05 A3024 RMK A01 T01710054  RH  046%=      5-min Rain = 0
KWE2 260059Z 12008KT 17/05 A3024 RMK A01 T01700054  RH  046%=      5-min Rain = 0
KWE2 260100Z 12007KT 17/05 A3024 RMK A01 T01690054  RH  046%=      5-min Rain = 0
KWE2 260101Z 13007KT 17/05 A3024 RMK A01 T01690053  RH  046%=      5-min Rain = 0
KWE2 260102Z 13007KT 17/05 A3024 RMK A01 T01680052  RH  046%=      5-min Rain = 0
KWE2 260103Z 12007KT 17/05 A3024 RMK A01 T01680054  RH  047%=      5-min Rain = 0
KWE2 260104Z 12007KT 17/05 A3024 RMK A01 T01670054  RH  047%=      5-min Rain = 0
KWE2 260105Z 12007KT 17/05 A3024 RMK A01 T01660053  RH  047%=      5-min Rain = 0
KWE2 260106Z 12008KT 17/05 A3024 RMK A01 T01650053  RH  047%=      5-min Rain = 0
KWE2 260107Z 12008KT 17/05 A3024 RMK A01 T01650053  RH  048%=      5-min Rain = 0
KWE2 260108Z 13007KT 16/05 A3024 RMK A01 T01640052  RH  048%=      5-min Rain = 0
KWE2 260109Z 13008KT 16/05 A3024 RMK A01 T01630052  RH  048%=      5-min Rain = 0
KWE2 260110Z 13008KT 16/05 A3024 RMK A01 T01620052  RH  048%=      5-min Rain = 0
KWE2 260111Z 13008KT 16/05 A3024 RMK A01 T01610052  RH  048%=      5-min Rain = 0
KWE2 260112Z 13008KT 16/05 A3024 RMK A01 T01610051  RH  048%=      5-min Rain = 0
KWE2 260113Z 13008KT 16/05 A3024 RMK A01 T01600052  RH  048%=      5-min Rain = 0
KWE2 260114Z 13008KT 16/05 A3024 RMK A01 T01600052  RH  049%=      5-min Rain = 0
KWE2 260115Z 13008KT 16/05 A3024 RMK A01 T01590051  RH  049%=      5-min Rain = 0
KWE2 260116Z 13008KT 16/05 A3024 RMK A01 T01580051  RH  049%=      5-min Rain = 0
KWE2 260117Z 12008KT 16/05 A3024 RMK A01 T01570051  RH  049%=      5-min Rain = 0
KWE2 260118Z 12008KT 16/05 A3024 RMK A01 T01560051  RH  049%=      5-min Rain = 0
KWE2 260119Z 12008KT 16/05 A3024 RMK A01 T01550051  RH  050%=      5-min Rain = 0
KWE2 260120Z 12007KT 16/05 A3024 RMK A01 T01550051  RH  050%=      5-min Rain = 0
KWE2 260121Z 12007KT 15/05 A3024 RMK A01 T01540050  RH  050%=      5-min Rain = 0
KWE2 260122Z 12007KT 15/05 A3024 RMK A01 T01530049  RH  050%=      5-min Rain = 0
KWE2 260123Z 12007KT 15/05 A3024 RMK A01 T01520049  RH  050%=      5-min Rain = 0
KWE2 260124Z 12007KT 15/05 A3024 RMK A01 T01520049  RH  050%=      5-min Rain = 0
KWE2 260125Z 12007KT 15/05 A3024 RMK A01 T01510050  RH  051%=      5-min Rain = 0
KWE2 260126Z 12007KT 15/05 A3024 RMK A01 T01500051  RH  051%=      5-min Rain = 0
KWE2 260127Z 12007KT 15/05 A3024 RMK A01 T01500051  RH  052%=      5-min Rain = 0
KWE2 260128Z 12007KT 15/05 A3024 RMK A01 T01490050  RH  052%=      5-min Rain = 0
KWE2 260129Z 12007KT 15/05 A3024 RMK A01 T01480050  RH  052%=      5-min Rain = 0
KWE2 260130Z 12007KT 15/05 A3024 RMK A01 T01470049  RH  052%=      5-min Rain = 0
KWE2 260131Z 12007KT 15/05 A3024 RMK A01 T01470049  RH  052%=      5-min Rain = 0
KWE2 260132Z 12007KT 15/05 A3024 RMK A01 T01460049  RH  052%=      5-min Rain = 0
KWE2 260133Z 12007KT 15/05 A3024 RMK A01 T01460049  RH  052%=      5-min Rain = 0
KWE2 260134Z 12007KT 15/05 A3024 RMK A01 T01460049  RH  052%=      5-min Rain = 0
KWE2 260135Z 12008KT 15/05 A3024 RMK A01 T01450049  RH  053%=      5-min Rain = 0
KWE2 260136Z 12008KT 15/05 A3024 RMK A01 T01450049  RH  053%=      5-min Rain = 0
KWE2 260137Z 12008KT 14/05 A3024 RMK A01 T01440049  RH  053%=      5-min Rain = 0
KWE2 260138Z 12008KT 14/05 A3024 RMK A01 T01440050  RH  053%=      5-min Rain = 0
KWE2 260139Z 12008KT 14/05 A3024 RMK A01 T01440049  RH  053%=      5-min Rain = 0
KWE2 260140Z 12008KT 14/05 A3024 RMK A01 T01440049  RH  053%=      5-min Rain = 0
KWE2 260141Z 12008KT 14/05 A3024 RMK A01 T01440049  RH  053%=      5-min Rain = 0
KWE2 260142Z 12008KT 14/05 A3024 RMK A01 T01430049  RH  053%=      5-min Rain = 0
KWE2 260143Z 12008KT 14/05 A3024 RMK A01 T01430049  RH  053%=      5-min Rain = 0
KWE2 260144Z 13009KT 14/05 A3025 RMK A01 T01430050  RH  053%=      5-min Rain = 0
KWE2 260145Z 13008KT 14/05 A3025 RMK A01 T01430049  RH  053%=      5-min Rain = 0
KWE2 260146Z 13008KT 14/05 A3025 RMK A01 T01420048  RH  053%=      5-min Rain = 0
KWE2 260147Z 13008KT 14/05 A3025 RMK A01 T01410048  RH  053%=      5-min Rain = 0
KWE2 260148Z 13008KT 14/05 A3025 RMK A01 T01410048  RH  053%=      5-min Rain = 0
KWE2 260149Z 13008KT 14/05 A3025 RMK A01 T01410047  RH  053%=      5-min Rain = 0
KWE2 260150Z 13008KT 14/05 A3025 RMK A01 T01410047  RH  053%=      5-min Rain = 0
KWE2 260151Z 13008KT 14/05 A3025 RMK A01 T01410047  RH  053%=      5-min Rain = 0
KWE2 260152Z 13008KT 14/05 A3025 RMK A01 T01410047  RH  053%=      5-min Rain = 0
KWE2 260153Z 13008KT 14/05 A3025 RMK A01 T01400048  RH  054%=      5-min Rain = 0
KWE2 260154Z 13008KT 14/05 A3025 RMK A01 T01400048  RH  054%=      5-min Rain = 0
KWE2 260155Z 13009KT 14/05 A3025 RMK A01 T01410049  RH  054%=      5-min Rain = 0
KWE2 260156Z 13009KT 14/05 A3025 RMK A01 T01420049  RH  054%=      5-min Rain = 0
KWE2 260157Z 13008KT 14/05 A3025 RMK A01 T01420050  RH  054%=      5-min Rain = 0
KWE2 260158Z 13008KT 14/05 A3025 RMK A01 T01420050  RH  054%=      5-min Rain = 0
KWE2 260159Z 13008KT 14/05 A3025 RMK A01 T01420050  RH  054%=      5-min Rain = 0
KWE2 260200Z 13008KT 14/05 A3025 RMK A01 T01410051  RH  055%=      5-min Rain = 0
KWE2 260201Z 13008KT 14/05 A3025 RMK A01 T01400051  RH  055%=      5-min Rain = 0
KWE2 260202Z 12008KT 14/05 A3025 RMK A01 T01390051  RH  055%=      5-min Rain = 0
KWE2 260203Z 12008KT 14/05 A3025 RMK A01 T01380051  RH  056%=      5-min Rain = 0
KWE2 260204Z 12008KT 14/05 A3025 RMK A01 T01370051  RH  056%=      5-min Rain = 0
KWE2 260205Z 12008KT 14/05 A3025 RMK A01 T01360050  RH  056%=      5-min Rain = 0
KWE2 260206Z 12008KT 14/05 A3025 RMK A01 T01350050  RH  056%=      5-min Rain = 0
KWE2 260207Z 12008KT 13/05 A3025 RMK A01 T01340050  RH  057%=      5-min Rain = 0
KWE2 260208Z 12008KT 13/05 A3025 RMK A01 T01330050  RH  057%=      5-min Rain = 0
KWE2 260209Z 12009KT 13/05 A3025 RMK A01 T01330050  RH  057%=      5-min Rain = 0
KWE2 260210Z 12008KT 13/05 A3025 RMK A01 T01320050  RH  057%=      5-min Rain = 0
KWE2 260211Z 12008KT 13/05 A3026 RMK A01 T01320050  RH  058%=      5-min Rain = 0
KWE2 260212Z 12008KT 13/05 A3026 RMK A01 T01320050  RH  058%=      5-min Rain = 0
KWE2 260213Z 12008KT 13/05 A3026 RMK A01 T01310051  RH  058%=      5-min Rain = 0
KWE2 260214Z 12008KT 13/05 A3026 RMK A01 T01310051  RH  058%=      5-min Rain = 0
KWE2 260215Z 12008KT 13/05 A3026 RMK A01 T01300051  RH  059%=      5-min Rain = 0
KWE2 260216Z 12008KT 13/05 A3026 RMK A01 T01300051  RH  059%=      5-min Rain = 0
KWE2 260217Z 12008KT 13/05 A3026 RMK A01 T01290052  RH  059%=      5-min Rain = 0
KWE2 260218Z 12008KT 13/05 A3026 RMK A01 T01290051  RH  059%=      5-min Rain = 0
KWE2 260219Z 12008KT 13/05 A3026 RMK A01 T01290052  RH  060%=      5-min Rain = 0
KWE2 260220Z 12008KT 13/05 A3026 RMK A01 T01280052  RH  060%=      5-min Rain = 0
KWE2 260221Z 12008KT 13/05 A3026 RMK A01 T01280051  RH  060%=      5-min Rain = 0
KWE2 260222Z 12008KT 13/05 A3026 RMK A01 T01280051  RH  060%=      5-min Rain = 0
KWE2 260223Z 12008KT 13/05 A3026 RMK A01 T01280051  RH  060%=      5-min Rain = 0
KWE2 260224Z 11007KT 13/05 A3026 RMK A01 T01270051  RH  060%=      5-min Rain = 0
KWE2 260225Z 12008KT 13/05 A3026 RMK A01 T01270053  RH  061%=      5-min Rain = 0
KWE2 260226Z 12008KT 13/05 A3026 RMK A01 T01260053  RH  061%=      5-min Rain = 0
KWE2 260227Z 12008KT 13/05 A3026 RMK A01 T01260053  RH  061%=      5-min Rain = 0
KWE2 260228Z 12007KT 13/05 A3026 RMK A01 T01260053  RH  061%=      5-min Rain = 0
KWE2 260229Z 12008KT 13/05 A3026 RMK A01 T01270052  RH  060%=      5-min Rain = 0
KWE2 260230Z 12008KT 13/05 A3026 RMK A01 T01280052  RH  060%=      5-min Rain = 0
KWE2 260231Z 12008KT 13/05 A3026 RMK A01 T01280053  RH  060%=      5-min Rain = 0
KWE2 260232Z 12009KT 13/05 A3026 RMK A01 T01290054  RH  060%=      5-min Rain = 0
KWE2 260233Z 12008KT 13/05 A3026 RMK A01 T01290054  RH  060%=      5-min Rain = 0
KWE2 260234Z 12009KT 13/06 A3026 RMK A01 T01290055  RH  060%=      5-min Rain = 0
KWE2 260235Z 12009KT 13/06 A3026 RMK A01 T01310056  RH  061%=      5-min Rain = 0
KWE2 260236Z 12009KT 13/06 A3026 RMK A01 T01310057  RH  060%=      5-min Rain = 0
KWE2 260237Z 11008KT 13/06 A3026 RMK A01 T01320056  RH  060%=      5-min Rain = 0
KWE2 260238Z 11009KT 13/06 A3026 RMK A01 T01320057  RH  060%=      5-min Rain = 0
KWE2 260239Z 12009KT 13/06 A3026 RMK A01 T01320056  RH  060%=      5-min Rain = 0
KWE2 260240Z 12009KT 13/06 A3026 RMK A01 T01320056  RH  060%=      5-min Rain = 0
KWE2 260241Z 12010KT 13/06 A3026 RMK A01 T01310057  RH  060%=      5-min Rain = 0
KWE2 260242Z 12009KT 13/06 A3026 RMK A01 T01310057  RH  061%=      5-min Rain = 0
KWE2 260243Z 12009KT 13/06 A3026 RMK A01 T01320057  RH  061%=      5-min Rain = 0
KWE2 260244Z 12009KT 13/06 A3026 RMK A01 T01320057  RH  061%=      5-min Rain = 0
KWE2 260245Z 12009KT 13/06 A3026 RMK A01 T01320058  RH  061%=      5-min Rain = 0
KWE2 260246Z 12010KT 13/06 A3026 RMK A01 T01320058  RH  061%=      5-min Rain = 0
KWE2 260247Z 12010KT 13/06 A3027 RMK A01 T01320058  RH  061%=      5-min Rain = 0
KWE2 260248Z 12009KT 13/06 A3027 RMK A01 T01320059  RH  061%=      5-min Rain = 0
KWE2 260249Z 13009KT 13/06 A3027 RMK A01 T01320058  RH  061%=      5-min Rain = 0
KWE2 260250Z 12009KT 13/06 A3027 RMK A01 T01320058  RH  061%=      5-min Rain = 0
KWE2 260251Z 12009KT 13/06 A3027 RMK A01 T01320058  RH  061%=      5-min Rain = 0
KWE2 260252Z 12010KT 13/06 A3027 RMK A01 T01320059  RH  061%=      5-min Rain = 0
KWE2 260253Z 12009KT 13/06 A3027 RMK A01 T01320059  RH  061%=      5-min Rain = 0
KWE2 260254Z 12010KT 13/06 A3027 RMK A01 T01320059  RH  061%=      5-min Rain = 0
KWE2 260255Z 13010KT 13/06 A3027 RMK A01 T01310059  RH  062%=      5-min Rain = 0
KWE2 260256Z 12010KT 13/06 A3027 RMK A01 T01310059  RH  062%=      5-min Rain = 0
KWE2 260257Z 12010KT 13/06 A3027 RMK A01 T01310059  RH  062%=      5-min Rain = 0
KWE2 260258Z 12010KT 13/06 A3027 RMK A01 T01310060  RH  062%=      5-min Rain = 0
KWE2 260259Z 12010KT 13/06 A3027 RMK A01 T01310060  RH  062%=      5-min Rain = 0
KWE2 260300Z 12011KT 13/06 A3027 RMK A01 T01310060  RH  062%=      5-min Rain = 0
KWE2 260301Z 12011KT 13/06 A3027 RMK A01 T01320060  RH  062%=      5-min Rain = 0
KWE2 260302Z 12010KT 13/06 A3027 RMK A01 T01320060  RH  062%=      5-min Rain = 0
KWE2 260303Z 12010KT 13/06 A3027 RMK A01 T01330061  RH  062%=      5-min Rain = 0
KWE2 260304Z 12011KT 13/06 A3027 RMK A01 T01330061  RH  062%=      5-min Rain = 0
KWE2 260305Z 12011KT 13/06 A3027 RMK A01 T01330061  RH  062%=      5-min Rain = 0
KWE2 260306Z 12011KT 13/06 A3027 RMK A01 T01330061  RH  062%=      5-min Rain = 0
KWE2 260307Z 12011KT 13/06 A3027 RMK A01 T01340061  RH  061%=      5-min Rain = 0
KWE2 260308Z 12011KT 13/06 A3027 RMK A01 T01330061  RH  062%=      5-min Rain = 0
KWE2 260309Z 12011KT 13/06 A3027 RMK A01 T01330061  RH  062%=      5-min Rain = 0
KWE2 260310Z 12011KT 13/06 A3027 RMK A01 T01330061  RH  062%=      5-min Rain = 0
KWE2 260311Z 12011KT 13/06 A3027 RMK A01 T01320061  RH  062%=      5-min Rain = 0
KWE2 260312Z 12010KT 13/06 A3027 RMK A01 T01320062  RH  062%=      5-min Rain = 0
KWE2 260313Z 12011KT 13/06 A3027 RMK A01 T01320061  RH  062%=      5-min Rain = 0
KWE2 260314Z 12012KT 13/06 A3027 RMK A01 T01320062  RH  062%=      5-min Rain = 0
KWE2 260315Z 12011KT 13/06 A3027 RMK A01 T01320062  RH  062%=      5-min Rain = 0
KWE2 260316Z 12011KT 13/06 A3027 RMK A01 T01320062  RH  062%=      5-min Rain = 0
KWE2 260317Z 12012KT 13/06 A3028 RMK A01 T01320062  RH  062%=      5-min Rain = 0
KWE2 260318Z 12011KT 13/06 A3028 RMK A01 T01320062  RH  062%=      5-min Rain = 0
KWE2 260319Z 12011KT 13/06 A3027 RMK A01 T01320063  RH  063%=      5-min Rain = 0
KWE2 260320Z 12012KT 13/06 A3028 RMK A01 T01320063  RH  063%=      5-min Rain = 0
KWE2 260321Z 11012KT 13/06 A3027 RMK A01 T01320063  RH  063%=      5-min Rain = 0
KWE2 260322Z 12011KT 13/06 A3027 RMK A01 T01320062  RH  063%=      5-min Rain = 0
KWE2 260323Z 12012KT 13/06 A3028 RMK A01 T01320062  RH  063%=      5-min Rain = 0
KWE2 260324Z 12012KT 13/06 A3028 RMK A01 T01320062  RH  063%=      5-min Rain = 0
KWE2 260325Z 12011KT 13/06 A3028 RMK A01 T01320063  RH  063%=      5-min Rain = 0
KWE2 260326Z 12011KT 13/06 A3028 RMK A01 T01320063  RH  063%=      5-min Rain = 0
KWE2 260327Z 12011KT 13/06 A3028 RMK A01 T01310063  RH  063%=      5-min Rain = 0
KWE2 260328Z 12011KT 13/06 A3028 RMK A01 T01300063  RH  063%=      5-min Rain = 0
KWE2 260329Z 12011KT 13/06 A3028 RMK A01 T01300063  RH  064%=      5-min Rain = 0
KWE2 260330Z 12011KT 13/06 A3028 RMK A01 T01300062  RH  064%=      5-min Rain = 0
KWE2 260331Z 12010KT 13/06 A3028 RMK A01 T01300063  RH  064%=      5-min Rain = 0
KWE2 260332Z 12011KT 13/06 A3028 RMK A01 T01300063  RH  064%=      5-min Rain = 0
KWE2 260333Z 12011KT 13/06 A3028 RMK A01 T01300063  RH  064%=      5-min Rain = 0
KWE2 260334Z 12011KT 13/06 A3028 RMK A01 T01300063  RH  064%=      5-min Rain = 0
KWE2 260335Z 12010KT 13/06 A3028 RMK A01 T01290063  RH  064%=      5-min Rain = 0
KWE2 260336Z 12010KT 13/06 A3028 RMK A01 T01280063  RH  064%=      5-min Rain = 0
KWE2 260337Z 12010KT 13/06 A3028 RMK A01 T01280063  RH  065%=      5-min Rain = 0
KWE2 260338Z 12010KT 13/06 A3028 RMK A01 T01280063  RH  065%=      5-min Rain = 0
KWE2 260339Z 12011KT 13/06 A3028 RMK A01 T01280063  RH  065%=      5-min Rain = 0
KWE2 260340Z 12010KT 13/06 A3028 RMK A01 T01270063  RH  065%=      5-min Rain = 0
KWE2 260341Z 12010KT 13/06 A3028 RMK A01 T01270063  RH  065%=      5-min Rain = 0
KWE2 260342Z 11009KT 13/06 A3028 RMK A01 T01260063  RH  065%=      5-min Rain = 0
KWE2 260343Z 11010KT 13/06 A3028 RMK A01 T01260063  RH  065%=      5-min Rain = 0
KWE2 260344Z 11009KT 13/06 A3028 RMK A01 T01250063  RH  066%=      5-min Rain = 0
KWE2 260345Z 11010KT 13/06 A3028 RMK A01 T01250063  RH  066%=      5-min Rain = 0
KWE2 260346Z 11010KT 12/06 A3028 RMK A01 T01240062  RH  066%=      5-min Rain = 0
KWE2 260347Z 12009KT 12/06 A3028 RMK A01 T01240063  RH  066%=      5-min Rain = 0
KWE2 260348Z 12010KT 12/06 A3028 RMK A01 T01240063  RH  066%=      5-min Rain = 0
KWE2 260349Z 12010KT 12/06 A3028 RMK A01 T01240063  RH  066%=      5-min Rain = 0
KWE2 260350Z 12010KT 12/06 A3028 RMK A01 T01240063  RH  066%=      5-min Rain = 0
KWE2 260351Z 12010KT 12/06 A3028 RMK A01 T01240063  RH  066%=      5-min Rain = 0
KWE2 260352Z 12010KT 12/06 A3028 RMK A01 T01240063  RH  066%=      5-min Rain = 0
KWE2 260353Z 12010KT 12/06 A3028 RMK A01 T01240063  RH  066%=      5-min Rain = 0
KWE2 260354Z 12010KT 12/06 A3028 RMK A01 T01240063  RH  067%=      5-min Rain = 0
KWE2 260355Z 12010KT 12/06 A3028 RMK A01 T01230063  RH  067%=      5-min Rain = 0
KWE2 260356Z 12010KT 12/06 A3028 RMK A01 T01230063  RH  067%=      5-min Rain = 0
KWE2 260357Z 11010KT 12/06 A3028 RMK A01 T01230063  RH  067%=      5-min Rain = 0
KWE2 260358Z 12010KT 12/06 A3028 RMK A01 T01230063  RH  067%=      5-min Rain = 0
KWE2 260359Z 12010KT 12/06 A3028 RMK A01 T01220063  RH  067%=      5-min Rain = 0
KWE2 260400Z 12010KT 12/06 A3028 RMK A01 T01230063  RH  067%=      5-min Rain = 0
KWE2 260401Z 12009KT 12/06 A3028 RMK A01 T01230063  RH  067%=      5-min Rain = 0
KWE2 260402Z 12009KT 12/06 A3028 RMK A01 T01220063  RH  067%=      5-min Rain = 0
KWE2 260403Z 12009KT 12/06 A3029 RMK A01 T01220063  RH  067%=      5-min Rain = 0
KWE2 260404Z 12009KT 12/06 A3028 RMK A01 T01210063  RH  067%=      5-min Rain = 0
KWE2 260405Z 11010KT 12/06 A3028 RMK A01 T01210063  RH  068%=      5-min Rain = 0
KWE2 260406Z 12010KT 12/06 A3028 RMK A01 T01210063  RH  068%=      5-min Rain = 0
KWE2 260407Z 12009KT 12/06 A3028 RMK A01 T01200063  RH  068%=      5-min Rain = 0
KWE2 260408Z 11009KT 12/06 A3028 RMK A01 T01200062  RH  068%=      5-min Rain = 0
KWE2 260409Z 12010KT 12/06 A3028 RMK A01 T01190062  RH  068%=      5-min Rain = 0
KWE2 260410Z 12010KT 12/06 A3028 RMK A01 T01190062  RH  068%=      5-min Rain = 0
KWE2 260411Z 12010KT 12/06 A3029 RMK A01 T01190062  RH  068%=      5-min Rain = 0
KWE2 260412Z 12010KT 12/06 A3028 RMK A01 T01190062  RH  068%=      5-min Rain = 0
KWE2 260413Z 12009KT 12/06 A3028 RMK A01 T01190063  RH  068%=      5-min Rain = 0
KWE2 260414Z 12010KT 12/06 A3028 RMK A01 T01190063  RH  068%=      5-min Rain = 0
KWE2 260415Z 12010KT 12/06 A3028 RMK A01 T01190063  RH  068%=      5-min Rain = 0
KWE2 260416Z 12009KT 12/06 A3028 RMK A01 T01190062  RH  068%=      5-min Rain = 0
KWE2 260417Z 12009KT 12/06 A3029 RMK A01 T01190063  RH  068%=      5-min Rain = 0
KWE2 260418Z 12009KT 12/06 A3029 RMK A01 T01190062  RH  068%=      5-min Rain = 0
KWE2 260419Z 11010KT 12/06 A3029 RMK A01 T01190062  RH  068%=      5-min Rain = 0
KWE2 260420Z 11009KT 12/06 A3029 RMK A01 T01180063  RH  069%=      5-min Rain = 0
KWE2 260421Z 11010KT 12/06 A3029 RMK A01 T01190063  RH  069%=      5-min Rain = 0
KWE2 260422Z 12009KT 12/06 A3029 RMK A01 T01180063  RH  069%=      5-min Rain = 0
KWE2 260423Z 12010KT 12/06 A3029 RMK A01 T01180063  RH  069%=      5-min Rain = 0
KWE2 260424Z 11010KT 12/06 A3029 RMK A01 T01190063  RH  069%=      5-min Rain = 0
KWE2 260425Z 11009KT 12/06 A3029 RMK A01 T01180063  RH  069%=      5-min Rain = 0
KWE2 260426Z 11009KT 12/06 A3029 RMK A01 T01190063  RH  069%=      5-min Rain = 0
KWE2 260427Z 12009KT 12/06 A3029 RMK A01 T01180063  RH  069%=      5-min Rain = 0
KWE2 260428Z 11009KT 12/06 A3029 RMK A01 T01180062  RH  069%=      5-min Rain = 0
KWE2 260429Z 12009KT 12/06 A3029 RMK A01 T01170062  RH  069%=      5-min Rain = 0
KWE2 260430Z 12009KT 12/06 A3029 RMK A01 T01170062  RH  069%=      5-min Rain = 0
KWE2 260431Z 12009KT 12/06 A3029 RMK A01 T01160062  RH  069%=      5-min Rain = 0
KWE2 260432Z 12010KT 12/06 A3029 RMK A01 T01160062  RH  070%=      5-min Rain = 0
KWE2 260433Z 12009KT 12/06 A3029 RMK A01 T01160062  RH  070%=      5-min Rain = 0
KWE2 260434Z 11010KT 12/06 A3029 RMK A01 T01160063  RH  070%=      5-min Rain = 0
KWE2 260435Z 11009KT 12/06 A3029 RMK A01 T01160063  RH  070%=      5-min Rain = 0
KWE2 260436Z 11010KT 12/06 A3029 RMK A01 T01160062  RH  070%=      5-min Rain = 0
KWE2 260437Z 11010KT 12/06 A3029 RMK A01 T01160063  RH  070%=      5-min Rain = 0
KWE2 260438Z 11009KT 12/06 A3029 RMK A01 T01160063  RH  070%=      5-min Rain = 0
KWE2 260439Z 11010KT 12/06 A3029 RMK A01 T01160063  RH  070%=      5-min Rain = 0
KWE2 260440Z 12009KT 12/06 A3029 RMK A01 T01170063  RH  070%=      5-min Rain = 0
KWE2 260441Z 12009KT 12/06 A3029 RMK A01 T01160063  RH  070%=      5-min Rain = 0
KWE2 260442Z 12009KT 12/06 A3029 RMK A01 T01160063  RH  070%=      5-min Rain = 0
KWE2 260443Z 12009KT 12/06 A3029 RMK A01 T01160063  RH  070%=      5-min Rain = 0
KWE2 260444Z 12009KT 12/06 A3029 RMK A01 T01160063  RH  070%=      5-min Rain = 0
KWE2 260445Z 12008KT 12/06 A3029 RMK A01 T01150063  RH  070%=      5-min Rain = 0
KWE2 260446Z 12008KT 12/06 A3029 RMK A01 T01150063  RH  070%=      5-min Rain = 0
KWE2 260447Z 11008KT 12/06 A3029 RMK A01 T01150063  RH  071%=      5-min Rain = 0
KWE2 260448Z 12008KT 11/06 A3029 RMK A01 T01140063  RH  071%=      5-min Rain = 0
KWE2 260449Z 12009KT 11/06 A3029 RMK A01 T01130063  RH  071%=      5-min Rain = 0
KWE2 260450Z 12010KT 11/06 A3029 RMK A01 T01130063  RH  072%=      5-min Rain = 0
KWE2 260451Z 12009KT 11/06 A3029 RMK A01 T01130063  RH  072%=      5-min Rain = 0
KWE2 260452Z 11010KT 11/06 A3029 RMK A01 T01130063  RH  072%=      5-min Rain = 0
KWE2 260453Z 12010KT 11/06 A3029 RMK A01 T01130063  RH  072%=      5-min Rain = 0
KWE2 260454Z 11009KT 11/06 A3029 RMK A01 T01130063  RH  071%=      5-min Rain = 0
KWE2 260455Z 11009KT 11/06 A3029 RMK A01 T01130063  RH  071%=      5-min Rain = 0
KWE2 260456Z 11009KT 11/06 A3029 RMK A01 T01130063  RH  071%=      5-min Rain = 0
KWE2 260457Z 11010KT 11/06 A3029 RMK A01 T01130064  RH  072%=      5-min Rain = 0
KWE2 260458Z 12011KT 11/06 A3029 RMK A01 T01130064  RH  072%=      5-min Rain = 0
KWE2 260459Z 12010KT 11/06 A3029 RMK A01 T01120063  RH  072%=      5-min Rain = 0

Page generated in 0.032 seconds.